ETD2 KJFK-OMAA
Flight info
| Callsign | ETD2 |
|---|---|
| Flight time | N/A |
| Altitude | 35000 |
| Route | HAPIE DCT YAHOO DCT WHALE DCT NANSO/M085F350 N59E RAFIN NATV ELSOX/M085F370 DCT TAKAS/N0491F370 DCT ALUTA DCT TERKU DCT KORER DCT LEMKA/N0489F390 DCT BEBIX/N0487F380 DCT VALKU/N0487F390 DCT TIS DCT MEBAK DCT GIPNO DCT BALSI DCT OBIGO DCT ROBEX DCT LAPRI/N0485F380 DCT MOGBO/N0482F390 DCT ROSKI DCT POLIT DCT BELIX DCT SALUN N705 MMA P751 DASUM Y234 FYM/N0484F410 M872 BDB Y214 RAPMA DCT KUVSO DCT KATIT DCT DANUX DCT TANSU/N0511F330 G783 VAVIM P899 ROVOS |
| Aircraft | A359/H-SDE2E3GHIJ3J4J5LM1ORWXY/LB1D1 |
Departure
| Time | N/A |
|---|---|
| Airport | John F. Kennedy International Airport (KJFK) |
Arrival
| Time | 2026-05-05 13:42 |
|---|---|
| Airport | Zayed International Airport (OMAA) |
| Time | Latitude | Longitude | Altitude | Speed | Heading |
|---|---|---|---|---|---|
| 2026-05-05 05:15 | 51.00636 | -15.24821 | 34993 ft | 492 kts | 91° |
| 2026-05-05 05:16 | 51.00531 | -15.19393 | 35006 ft | 492 kts | 91° |
| 2026-05-05 05:16 | 51.00312 | -15.08510 | 34995 ft | 492 kts | 91° |
| 2026-05-05 05:17 | 51.00087 | -14.97628 | 35002 ft | 492 kts | 90° |
| 2026-05-05 05:17 | 51.00076 | -14.86818 | 35004 ft | 492 kts | 88° |
| 2026-05-05 05:18 | 51.00169 | -14.75948 | 35002 ft | 492 kts | 88° |
| 2026-05-05 05:18 | 51.00221 | -14.66841 | 35003 ft | 492 kts | 89° |
| 2026-05-05 05:19 | 51.00243 | -14.56043 | 35002 ft | 492 kts | 89° |
| 2026-05-05 05:19 | 51.00243 | -14.45156 | 35003 ft | 492 kts | 89° |
| 2026-05-05 05:20 | 51.00231 | -14.34291 | 35009 ft | 492 kts | 89° |
| 2026-05-05 05:20 | 51.00211 | -14.23416 | 35000 ft | 492 kts | 89° |
| 2026-05-05 05:21 | 51.00181 | -14.12548 | 35002 ft | 492 kts | 89° |
| 2026-05-05 05:21 | 50.99759 | -14.01712 | 35107 ft | 492 kts | 100° |
| 2026-05-05 05:21 | 50.98886 | -13.96468 | 35417 ft | 489 kts | 108° |
| 2026-05-05 05:22 | 50.97630 | -13.91474 | 35729 ft | 486 kts | 112° |
| 2026-05-05 05:22 | 50.96276 | -13.86627 | 35956 ft | 486 kts | 114° |
| 2026-05-05 05:22 | 50.94849 | -13.81782 | 36148 ft | 485 kts | 114° |
| 2026-05-05 05:22 | 50.93391 | -13.76944 | 36334 ft | 485 kts | 115° |
| 2026-05-05 05:23 | 50.91927 | -13.72121 | 36501 ft | 485 kts | 114° |
| 2026-05-05 05:23 | 50.90464 | -13.67295 | 36659 ft | 485 kts | 114° |
| 2026-05-05 05:23 | 50.89007 | -13.62470 | 36812 ft | 485 kts | 114° |
| 2026-05-05 05:23 | 50.87554 | -13.57647 | 36964 ft | 486 kts | 114° |
| 2026-05-05 05:24 | 50.86100 | -13.52812 | 37001 ft | 488 kts | 114° |
| 2026-05-05 05:24 | 50.83166 | -13.43063 | 37000 ft | 490 kts | 115° |
| 2026-05-05 05:25 | 50.80228 | -13.33336 | 37000 ft | 490 kts | 115° |
| 2026-05-05 05:25 | 50.77281 | -13.23625 | 37000 ft | 490 kts | 115° |
| 2026-05-05 05:26 | 50.74327 | -13.13933 | 37000 ft | 490 kts | 115° |
| 2026-05-05 05:26 | 50.71366 | -13.04253 | 37000 ft | 490 kts | 115° |
| 2026-05-05 05:27 | 50.68395 | -12.94578 | 37000 ft | 490 kts | 115° |
| 2026-05-05 05:27 | 50.63944 | -12.80159 | 37000 ft | 490 kts | 115° |
| 2026-05-05 05:28 | 50.60955 | -12.70523 | 37000 ft | 490 kts | 115° |
| 2026-05-05 05:28 | 50.57956 | -12.60888 | 37000 ft | 490 kts | 115° |
| 2026-05-05 05:29 | 50.54946 | -12.51259 | 37000 ft | 490 kts | 115° |
| 2026-05-05 05:29 | 50.51933 | -12.41660 | 37000 ft | 490 kts | 115° |
| 2026-05-05 05:30 | 50.48910 | -12.32065 | 37000 ft | 490 kts | 115° |
| 2026-05-05 05:30 | 50.45899 | -12.22545 | 37000 ft | 490 kts | 115° |
| 2026-05-05 05:31 | 50.42862 | -12.12977 | 37000 ft | 490 kts | 115° |
| 2026-05-05 05:31 | 50.39815 | -12.03418 | 37000 ft | 490 kts | 115° |
| 2026-05-05 05:32 | 50.36760 | -11.93871 | 37000 ft | 490 kts | 115° |
| 2026-05-05 05:32 | 50.33700 | -11.84345 | 37000 ft | 490 kts | 115° |
| 2026-05-05 05:33 | 50.30632 | -11.74830 | 37000 ft | 490 kts | 116° |
| 2026-05-05 05:33 | 50.27556 | -11.65326 | 37000 ft | 490 kts | 116° |
| 2026-05-05 05:34 | 50.24470 | -11.55826 | 37000 ft | 490 kts | 116° |
| 2026-05-05 05:34 | 50.21377 | -11.46341 | 37000 ft | 490 kts | 116° |
| 2026-05-05 05:35 | 50.18271 | -11.36855 | 37000 ft | 490 kts | 116° |
| 2026-05-05 05:35 | 50.15163 | -11.27397 | 37000 ft | 490 kts | 116° |
| 2026-05-05 05:36 | 50.12067 | -11.18009 | 37000 ft | 490 kts | 116° |
| 2026-05-05 05:36 | 50.08941 | -11.08569 | 37000 ft | 490 kts | 116° |
| 2026-05-05 05:37 | 50.05811 | -10.99149 | 37000 ft | 490 kts | 116° |
| 2026-05-05 05:37 | 50.02673 | -10.89743 | 37000 ft | 490 kts | 116° |
| 2026-05-05 05:38 | 49.99526 | -10.80343 | 37000 ft | 490 kts | 116° |
| 2026-05-05 05:38 | 49.96372 | -10.70958 | 37000 ft | 490 kts | 117° |
| 2026-05-05 05:39 | 49.93212 | -10.61590 | 37000 ft | 490 kts | 116° |
| 2026-05-05 05:39 | 49.90063 | -10.52286 | 37000 ft | 490 kts | 116° |
| 2026-05-05 05:40 | 49.86887 | -10.42941 | 37000 ft | 490 kts | 117° |
| 2026-05-05 05:40 | 49.83699 | -10.33592 | 37000 ft | 490 kts | 117° |
| 2026-05-05 05:41 | 49.80507 | -10.24268 | 37000 ft | 490 kts | 117° |
| 2026-05-05 05:41 | 49.77306 | -10.14951 | 37000 ft | 490 kts | 117° |
| 2026-05-05 05:42 | 49.74120 | -10.05713 | 37000 ft | 490 kts | 117° |
| 2026-05-05 05:42 | 49.70907 | -9.96427 | 37000 ft | 490 kts | 117° |
| 2026-05-05 05:43 | 49.67679 | -9.87132 | 37000 ft | 490 kts | 117° |
| 2026-05-05 05:43 | 49.64453 | -9.77878 | 37000 ft | 490 kts | 117° |
| 2026-05-05 05:44 | 49.61214 | -9.68618 | 37000 ft | 490 kts | 117° |
| 2026-05-05 05:44 | 49.57987 | -9.59427 | 37000 ft | 490 kts | 117° |
| 2026-05-05 05:45 | 49.54733 | -9.50194 | 37000 ft | 490 kts | 117° |
| 2026-05-05 05:45 | 49.51475 | -9.40981 | 37000 ft | 490 kts | 117° |
| 2026-05-05 05:46 | 49.48209 | -9.31775 | 37000 ft | 490 kts | 117° |
| 2026-05-05 05:46 | 49.44935 | -9.22584 | 37000 ft | 490 kts | 117° |
| 2026-05-05 05:47 | 49.41678 | -9.13470 | 37000 ft | 490 kts | 118° |
| 2026-05-05 05:47 | 49.38368 | -9.04242 | 37000 ft | 490 kts | 117° |
| 2026-05-05 05:48 | 49.35097 | -8.95156 | 37000 ft | 490 kts | 118° |
| 2026-05-05 05:48 | 49.31798 | -8.86024 | 37000 ft | 490 kts | 118° |
| 2026-05-05 05:49 | 49.28488 | -8.76895 | 37000 ft | 490 kts | 118° |
| 2026-05-05 05:49 | 49.25175 | -8.67786 | 37000 ft | 490 kts | 118° |
| 2026-05-05 05:50 | 49.21851 | -8.58680 | 37000 ft | 490 kts | 118° |
| 2026-05-05 05:50 | 49.18518 | -8.49580 | 37000 ft | 490 kts | 118° |
| 2026-05-05 05:51 | 49.15199 | -8.40553 | 37000 ft | 490 kts | 118° |
| 2026-05-05 05:51 | 49.11855 | -8.31488 | 37000 ft | 490 kts | 118° |
| 2026-05-05 05:52 | 49.08500 | -8.22427 | 37000 ft | 490 kts | 118° |
| 2026-05-05 05:52 | 49.05142 | -8.13384 | 37000 ft | 490 kts | 118° |
| 2026-05-05 05:53 | 49.01955 | -8.04217 | 37003 ft | 489 kts | 111° |
| 2026-05-05 05:53 | 49.00330 | -7.94225 | 37000 ft | 487 kts | 93° |
| 2026-05-05 05:54 | 49.00212 | -7.83895 | 36999 ft | 489 kts | 88° |
| 2026-05-05 05:54 | 49.00363 | -7.73597 | 37000 ft | 490 kts | 87° |
| 2026-05-05 05:55 | 49.00520 | -7.63215 | 37000 ft | 490 kts | 88° |
| 2026-05-05 05:55 | 49.00508 | -7.52835 | 36997 ft | 490 kts | 94° |
| 2026-05-05 05:56 | 48.99022 | -7.42711 | 37003 ft | 491 kts | 107° |
| 2026-05-05 05:56 | 48.96832 | -7.32883 | 37000 ft | 490 kts | 108° |
| 2026-05-05 05:57 | 48.94525 | -7.23130 | 37000 ft | 490 kts | 109° |
| 2026-05-05 05:57 | 48.92216 | -7.13375 | 37000 ft | 490 kts | 108° |
| 2026-05-05 05:58 | 48.89924 | -7.03628 | 37000 ft | 490 kts | 108° |
| 2026-05-05 05:58 | 48.87630 | -6.93875 | 37000 ft | 490 kts | 108° |
| 2026-05-05 05:59 | 48.85330 | -6.84139 | 37000 ft | 490 kts | 109° |
| 2026-05-05 05:59 | 48.83033 | -6.74466 | 37000 ft | 490 kts | 109° |
| 2026-05-05 06:00 | 48.80713 | -6.64742 | 37000 ft | 490 kts | 109° |
| 2026-05-05 06:00 | 48.78387 | -6.55035 | 37000 ft | 490 kts | 109° |
| 2026-05-05 06:01 | 48.76051 | -6.45328 | 37000 ft | 490 kts | 109° |
| 2026-05-05 06:01 | 48.73706 | -6.35628 | 37000 ft | 490 kts | 109° |
| 2026-05-05 06:02 | 48.71351 | -6.25927 | 37000 ft | 490 kts | 109° |
| 2026-05-05 06:02 | 48.68994 | -6.16260 | 37000 ft | 490 kts | 109° |
| 2026-05-05 06:03 | 48.66627 | -6.06596 | 37000 ft | 490 kts | 109° |
| 2026-05-05 06:03 | 48.64250 | -5.96933 | 37000 ft | 490 kts | 109° |
| 2026-05-05 06:04 | 48.61880 | -5.87341 | 37000 ft | 490 kts | 109° |
| 2026-05-05 06:04 | 48.59488 | -5.77699 | 37000 ft | 490 kts | 109° |
| 2026-05-05 06:05 | 48.57088 | -5.68068 | 37000 ft | 490 kts | 110° |
| 2026-05-05 06:05 | 48.54679 | -5.58443 | 37000 ft | 490 kts | 110° |
| 2026-05-05 06:06 | 48.52668 | -5.50436 | 37000 ft | 490 kts | 110° |
| 2026-05-05 06:06 | 48.50245 | -5.40834 | 37000 ft | 490 kts | 109° |
| 2026-05-05 06:07 | 48.47812 | -5.31229 | 37000 ft | 490 kts | 110° |
| 2026-05-05 06:07 | 48.45389 | -5.21704 | 37000 ft | 490 kts | 110° |
| 2026-05-05 06:08 | 48.42942 | -5.12124 | 37000 ft | 490 kts | 110° |
| 2026-05-05 06:08 | 48.40491 | -5.02567 | 37000 ft | 490 kts | 110° |
| 2026-05-05 06:09 | 48.38025 | -4.92998 | 37000 ft | 490 kts | 110° |
| 2026-05-05 06:09 | 48.35559 | -4.83465 | 37000 ft | 490 kts | 110° |
| 2026-05-05 06:10 | 48.33079 | -4.73916 | 37000 ft | 490 kts | 110° |
| 2026-05-05 06:10 | 48.30591 | -4.64379 | 37000 ft | 490 kts | 110° |
| 2026-05-05 06:11 | 48.28098 | -4.54863 | 37000 ft | 490 kts | 110° |
| 2026-05-05 06:11 | 48.25597 | -4.45352 | 37000 ft | 490 kts | 110° |
| 2026-05-05 06:12 | 48.23084 | -4.35834 | 37000 ft | 490 kts | 111° |
| 2026-05-05 06:12 | 48.20579 | -4.26389 | 37000 ft | 490 kts | 110° |
| 2026-05-05 06:13 | 48.18048 | -4.16882 | 37000 ft | 491 kts | 110° |
| 2026-05-05 06:13 | 48.15511 | -4.07390 | 37000 ft | 491 kts | 110° |
| 2026-05-05 06:14 | 48.12965 | -3.97906 | 37000 ft | 491 kts | 111° |
| 2026-05-05 06:14 | 48.10409 | -3.88421 | 37000 ft | 491 kts | 111° |
| 2026-05-05 06:15 | 48.07847 | -3.78955 | 36999 ft | 491 kts | 111° |
| 2026-05-05 06:15 | 48.05276 | -3.69491 | 37000 ft | 491 kts | 111° |
| 2026-05-05 06:16 | 48.02697 | -3.60039 | 36999 ft | 491 kts | 111° |
| 2026-05-05 06:16 | 47.99932 | -3.50696 | 37001 ft | 491 kts | 114° |
| 2026-05-05 06:17 | 47.97072 | -3.41508 | 37000 ft | 491 kts | 114° |
| 2026-05-05 06:17 | 47.94208 | -3.32264 | 37000 ft | 490 kts | 114° |
| 2026-05-05 06:18 | 47.91364 | -3.23018 | 37000 ft | 491 kts | 113° |
| 2026-05-05 06:18 | 47.88516 | -3.13750 | 37000 ft | 491 kts | 114° |
| 2026-05-05 06:19 | 47.85676 | -3.04544 | 37000 ft | 490 kts | 114° |
| 2026-05-05 06:19 | 47.82827 | -2.95353 | 37000 ft | 490 kts | 114° |
| 2026-05-05 06:20 | 47.79957 | -2.86125 | 37000 ft | 491 kts | 114° |
| 2026-05-05 06:20 | 47.77083 | -2.76917 | 37000 ft | 490 kts | 114° |
| 2026-05-05 06:21 | 47.74200 | -2.67719 | 37000 ft | 490 kts | 114° |
| 2026-05-05 06:21 | 47.71313 | -2.58540 | 37000 ft | 491 kts | 114° |
| 2026-05-05 06:22 | 47.68288 | -2.49538 | 36998 ft | 491 kts | 120° |
| 2026-05-05 06:22 | 47.64600 | -2.41005 | 37000 ft | 491 kts | 122° |
| 2026-05-05 06:23 | 47.60799 | -2.32609 | 37000 ft | 490 kts | 123° |
| 2026-05-05 06:23 | 47.56981 | -2.24251 | 37000 ft | 490 kts | 123° |
| 2026-05-05 06:24 | 47.53165 | -2.15894 | 37000 ft | 490 kts | 123° |
| 2026-05-05 06:24 | 47.49344 | -2.07531 | 37000 ft | 490 kts | 123° |
| 2026-05-05 06:25 | 47.45523 | -1.99187 | 37000 ft | 490 kts | 123° |
| 2026-05-05 06:25 | 47.41701 | -1.90866 | 37000 ft | 490 kts | 123° |
| 2026-05-05 06:26 | 47.37866 | -1.82543 | 37000 ft | 490 kts | 123° |
| 2026-05-05 06:26 | 47.34026 | -1.74233 | 37000 ft | 490 kts | 123° |
| 2026-05-05 06:27 | 47.28279 | -1.61847 | 37000 ft | 490 kts | 123° |
| 2026-05-05 06:28 | 47.24425 | -1.53572 | 37000 ft | 490 kts | 123° |
| 2026-05-05 06:28 | 47.20563 | -1.45304 | 37000 ft | 490 kts | 123° |
| 2026-05-05 06:29 | 47.16697 | -1.37052 | 37000 ft | 490 kts | 123° |
| 2026-05-05 06:29 | 47.12834 | -1.28830 | 37000 ft | 490 kts | 124° |
| 2026-05-05 06:30 | 47.08942 | -1.20572 | 37000 ft | 490 kts | 123° |
| 2026-05-05 06:30 | 47.05081 | -1.12404 | 37000 ft | 490 kts | 123° |
| 2026-05-05 06:31 | 47.01182 | -1.04179 | 37000 ft | 490 kts | 123° |
| 2026-05-05 06:31 | 46.97277 | -0.95966 | 37000 ft | 490 kts | 124° |
| 2026-05-05 06:32 | 46.93397 | -0.87827 | 37000 ft | 491 kts | 124° |
| 2026-05-05 06:32 | 46.89482 | -0.79642 | 37000 ft | 491 kts | 124° |
| 2026-05-05 06:33 | 46.85557 | -0.71464 | 37000 ft | 491 kts | 124° |
| 2026-05-05 06:33 | 46.81630 | -0.63305 | 37000 ft | 491 kts | 124° |
| 2026-05-05 06:34 | 46.77701 | -0.55160 | 37000 ft | 491 kts | 124° |
| 2026-05-05 06:34 | 46.73760 | -0.47017 | 37000 ft | 491 kts | 124° |
| 2026-05-05 06:35 | 46.69814 | -0.38887 | 37000 ft | 491 kts | 124° |
| 2026-05-05 06:35 | 46.65867 | -0.30777 | 37000 ft | 491 kts | 124° |
| 2026-05-05 06:35 | 46.63889 | -0.26707 | 37124 ft | 491 kts | 123° |
| 2026-05-05 06:36 | 46.62079 | -0.22512 | 37367 ft | 489 kts | 120° |
| 2026-05-05 06:36 | 46.60332 | -0.18269 | 37537 ft | 489 kts | 120° |
| 2026-05-05 06:36 | 46.58610 | -0.14015 | 37693 ft | 488 kts | 119° |
| 2026-05-05 06:36 | 46.56897 | -0.09751 | 37842 ft | 488 kts | 119° |
| 2026-05-05 06:37 | 46.55187 | -0.05484 | 37988 ft | 488 kts | 119° |
| 2026-05-05 06:37 | 46.53479 | -0.01225 | 38132 ft | 488 kts | 119° |
| 2026-05-05 06:37 | 46.51787 | 0.02982 | 38264 ft | 488 kts | 119° |
| 2026-05-05 06:37 | 46.50068 | 0.07244 | 38412 ft | 488 kts | 119° |
| 2026-05-05 06:38 | 46.48349 | 0.11494 | 38531 ft | 488 kts | 119° |
| 2026-05-05 06:38 | 46.46627 | 0.15742 | 38642 ft | 488 kts | 119° |
| 2026-05-05 06:38 | 46.44904 | 0.19986 | 38786 ft | 488 kts | 120° |
| 2026-05-05 06:38 | 46.43181 | 0.24219 | 38889 ft | 488 kts | 120° |
| 2026-05-05 06:39 | 46.41452 | 0.28463 | 38978 ft | 488 kts | 120° |
| 2026-05-05 06:39 | 46.37980 | 0.36965 | 39001 ft | 491 kts | 120° |
| 2026-05-05 06:40 | 46.34492 | 0.45482 | 38998 ft | 491 kts | 120° |
| 2026-05-05 06:40 | 46.31022 | 0.53927 | 39003 ft | 491 kts | 120° |
| 2026-05-05 06:41 | 46.27527 | 0.62407 | 38998 ft | 491 kts | 120° |
| 2026-05-05 06:41 | 46.24021 | 0.70890 | 38998 ft | 491 kts | 120° |
| 2026-05-05 06:42 | 46.20515 | 0.79350 | 39006 ft | 491 kts | 120° |
| 2026-05-05 06:42 | 46.16994 | 0.87817 | 38998 ft | 491 kts | 120° |
| 2026-05-05 06:43 | 46.13492 | 0.96208 | 38998 ft | 491 kts | 120° |
| 2026-05-05 06:43 | 46.09964 | 1.04641 | 38998 ft | 492 kts | 120° |
| 2026-05-05 06:44 | 46.06424 | 1.13076 | 39000 ft | 492 kts | 120° |
| 2026-05-05 06:44 | 46.02878 | 1.21500 | 38999 ft | 492 kts | 120° |
| 2026-05-05 06:45 | 45.99319 | 1.29931 | 39003 ft | 492 kts | 120° |
| 2026-05-05 06:45 | 45.96379 | 1.38786 | 39009 ft | 491 kts | 106° |
| 2026-05-05 06:46 | 45.95403 | 1.48454 | 38996 ft | 490 kts | 89° |
| 2026-05-05 06:46 | 45.95660 | 1.58252 | 38997 ft | 492 kts | 85° |
| 2026-05-05 06:47 | 45.96103 | 1.68068 | 38999 ft | 493 kts | 85° |
| 2026-05-05 06:47 | 45.96522 | 1.77853 | 38999 ft | 493 kts | 85° |
| 2026-05-05 06:48 | 45.96904 | 1.87708 | 39000 ft | 494 kts | 86° |
| 2026-05-05 06:48 | 45.97261 | 1.97579 | 38997 ft | 494 kts | 85° |
| 2026-05-05 06:49 | 45.97605 | 2.07447 | 39004 ft | 494 kts | 86° |
| 2026-05-05 06:49 | 45.97943 | 2.17333 | 38997 ft | 494 kts | 86° |
| 2026-05-05 06:50 | 45.98274 | 2.27205 | 38998 ft | 494 kts | 86° |
| 2026-05-05 06:50 | 45.98598 | 2.37030 | 39008 ft | 494 kts | 86° |
| 2026-05-05 06:51 | 45.98910 | 2.46903 | 39003 ft | 495 kts | 86° |
| 2026-05-05 06:51 | 45.99215 | 2.56794 | 39005 ft | 494 kts | 86° |
| 2026-05-05 06:52 | 45.99513 | 2.66691 | 38997 ft | 495 kts | 86° |
| 2026-05-05 06:52 | 45.99800 | 2.76598 | 38996 ft | 495 kts | 87° |
| 2026-05-05 06:53 | 45.99388 | 2.84789 | 39003 ft | 496 kts | 99° |
| 2026-05-05 06:53 | 45.98038 | 2.94502 | 39002 ft | 495 kts | 101° |
| 2026-05-05 06:54 | 45.96515 | 3.04151 | 38997 ft | 495 kts | 102° |
| 2026-05-05 06:54 | 45.94968 | 3.13795 | 38998 ft | 494 kts | 102° |
| 2026-05-05 06:55 | 45.93435 | 3.23396 | 38995 ft | 493 kts | 102° |
| 2026-05-05 06:55 | 45.91909 | 3.32982 | 38995 ft | 492 kts | 102° |
| 2026-05-05 06:56 | 45.90375 | 3.42569 | 39003 ft | 492 kts | 102° |
| 2026-05-05 06:56 | 45.88845 | 3.52087 | 38996 ft | 492 kts | 102° |
| 2026-05-05 06:57 | 45.87309 | 3.61689 | 38995 ft | 494 kts | 101° |
| 2026-05-05 06:57 | 45.85829 | 3.71328 | 38999 ft | 495 kts | 101° |
| 2026-05-05 06:58 | 45.84348 | 3.80972 | 38997 ft | 496 kts | 101° |
| 2026-05-05 06:58 | 45.82849 | 3.90628 | 38995 ft | 495 kts | 101° |
| 2026-05-05 06:59 | 45.81334 | 4.00260 | 39003 ft | 495 kts | 101° |
| 2026-05-05 06:59 | 45.79820 | 4.09806 | 38995 ft | 493 kts | 102° |
| 2026-05-05 07:00 | 45.78293 | 4.19398 | 39000 ft | 493 kts | 102° |
| 2026-05-05 07:00 | 45.76763 | 4.28951 | 38997 ft | 493 kts | 102° |
| 2026-05-05 07:01 | 45.75223 | 4.38533 | 38998 ft | 494 kts | 102° |
| 2026-05-05 07:01 | 45.73673 | 4.48123 | 39001 ft | 494 kts | 102° |
| 2026-05-05 07:02 | 45.72124 | 4.57653 | 38998 ft | 494 kts | 102° |
| 2026-05-05 07:02 | 45.70552 | 4.67249 | 39003 ft | 494 kts | 102° |
| 2026-05-05 07:03 | 45.68979 | 4.76803 | 39006 ft | 493 kts | 102° |
| 2026-05-05 07:03 | 45.67401 | 4.86330 | 39000 ft | 492 kts | 102° |
| 2026-05-05 07:04 | 45.65818 | 4.95838 | 38999 ft | 492 kts | 102° |
| 2026-05-05 07:04 | 45.64223 | 5.05349 | 38997 ft | 492 kts | 102° |
| 2026-05-05 07:05 | 45.62630 | 5.14796 | 39007 ft | 492 kts | 102° |
| 2026-05-05 07:05 | 45.61023 | 5.24285 | 38999 ft | 492 kts | 102° |
| 2026-05-05 07:06 | 45.59405 | 5.33793 | 39003 ft | 492 kts | 102° |
| 2026-05-05 07:06 | 45.57781 | 5.43304 | 39000 ft | 493 kts | 102° |
| 2026-05-05 07:07 | 45.56153 | 5.52760 | 38999 ft | 493 kts | 103° |
| 2026-05-05 07:07 | 45.54424 | 5.62241 | 39005 ft | 493 kts | 104° |
| 2026-05-05 07:08 | 45.52593 | 5.71669 | 39004 ft | 492 kts | 104° |
| 2026-05-05 07:08 | 45.50765 | 5.81085 | 39000 ft | 493 kts | 104° |
| 2026-05-05 07:09 | 45.48922 | 5.90476 | 38996 ft | 497 kts | 107° |
| 2026-05-05 07:09 | 45.45904 | 5.99319 | 38998 ft | 498 kts | 124° |
| 2026-05-05 07:10 | 45.41738 | 6.07143 | 38997 ft | 493 kts | 128° |
| 2026-05-05 07:10 | 45.37387 | 6.14729 | 39003 ft | 496 kts | 128° |
| 2026-05-05 07:11 | 45.33009 | 6.22301 | 39000 ft | 501 kts | 128° |
| 2026-05-05 07:11 | 45.28594 | 6.29982 | 38997 ft | 501 kts | 128° |
| 2026-05-05 07:12 | 45.24206 | 6.37628 | 38998 ft | 498 kts | 128° |
| 2026-05-05 07:12 | 45.19821 | 6.45256 | 38999 ft | 500 kts | 128° |
| 2026-05-05 07:13 | 45.15415 | 6.52908 | 39001 ft | 501 kts | 128° |
| 2026-05-05 07:13 | 45.11614 | 6.60801 | 39000 ft | 505 kts | 115° |
| 2026-05-05 07:14 | 45.09038 | 6.70062 | 38997 ft | 506 kts | 108° |
| 2026-05-05 07:14 | 45.06815 | 6.79479 | 38996 ft | 504 kts | 107° |
| 2026-05-05 07:15 | 45.04629 | 6.88914 | 38995 ft | 503 kts | 107° |
| 2026-05-05 07:15 | 45.02417 | 6.98297 | 39002 ft | 504 kts | 107° |
| 2026-05-05 07:16 | 45.00168 | 7.07692 | 39000 ft | 505 kts | 107° |
| 2026-05-05 07:16 | 44.98427 | 7.17240 | 39005 ft | 500 kts | 95° |
| 2026-05-05 07:17 | 44.98160 | 7.26991 | 39000 ft | 497 kts | 89° |
| 2026-05-05 07:17 | 44.97600 | 7.36735 | 38996 ft | 499 kts | 102° |
| 2026-05-05 07:18 | 44.95108 | 7.45706 | 39009 ft | 494 kts | 121° |
| 2026-05-05 07:18 | 44.91047 | 7.53373 | 39000 ft | 492 kts | 128° |
| 2026-05-05 07:19 | 44.86660 | 7.60706 | 38999 ft | 491 kts | 129° |
| 2026-05-05 07:19 | 44.82221 | 7.68027 | 39002 ft | 491 kts | 129° |
| 2026-05-05 07:20 | 44.77799 | 7.75373 | 38999 ft | 491 kts | 129° |
| 2026-05-05 07:20 | 44.73400 | 7.82722 | 38998 ft | 491 kts | 129° |
| 2026-05-05 07:21 | 44.68984 | 7.90086 | 38999 ft | 492 kts | 129° |
| 2026-05-05 07:21 | 44.64575 | 7.97426 | 38999 ft | 491 kts | 129° |
| 2026-05-05 07:22 | 44.60158 | 8.04760 | 38998 ft | 492 kts | 129° |
| 2026-05-05 07:22 | 44.55729 | 8.12098 | 39002 ft | 494 kts | 129° |
| 2026-05-05 07:23 | 44.51284 | 8.19425 | 38999 ft | 493 kts | 129° |
| 2026-05-05 07:23 | 44.46858 | 8.26705 | 39001 ft | 494 kts | 129° |
| 2026-05-05 07:24 | 44.42407 | 8.34003 | 39002 ft | 492 kts | 129° |
| 2026-05-05 07:24 | 44.37944 | 8.41294 | 39003 ft | 494 kts | 129° |
| 2026-05-05 07:25 | 44.33517 | 8.48540 | 38998 ft | 493 kts | 129° |
| 2026-05-05 07:25 | 44.29071 | 8.55793 | 38998 ft | 490 kts | 129° |
| 2026-05-05 07:26 | 44.24634 | 8.63008 | 39002 ft | 490 kts | 129° |
| 2026-05-05 07:26 | 44.20192 | 8.70219 | 38998 ft | 490 kts | 129° |
| 2026-05-05 07:27 | 44.15747 | 8.77398 | 38998 ft | 490 kts | 129° |
| 2026-05-05 07:27 | 44.11288 | 8.84581 | 39003 ft | 490 kts | 130° |
| 2026-05-05 07:28 | 44.06833 | 8.91745 | 38999 ft | 490 kts | 130° |
| 2026-05-05 07:28 | 44.02374 | 8.98901 | 38998 ft | 490 kts | 130° |
| 2026-05-05 07:29 | 43.97908 | 9.06051 | 39001 ft | 490 kts | 130° |
| 2026-05-05 07:29 | 43.93438 | 9.13187 | 38999 ft | 490 kts | 130° |
| 2026-05-05 07:30 | 43.88967 | 9.20307 | 39001 ft | 490 kts | 130° |
| 2026-05-05 07:30 | 43.82277 | 9.30923 | 39001 ft | 489 kts | 130° |
| 2026-05-05 07:31 | 43.77802 | 9.38009 | 38999 ft | 490 kts | 130° |
| 2026-05-05 07:31 | 43.73310 | 9.45102 | 38999 ft | 489 kts | 130° |
| 2026-05-05 07:32 | 43.68808 | 9.52193 | 39001 ft | 490 kts | 130° |
| 2026-05-05 07:32 | 43.64309 | 9.59260 | 39004 ft | 490 kts | 130° |
| 2026-05-05 07:33 | 43.59807 | 9.66315 | 38998 ft | 490 kts | 130° |
| 2026-05-05 07:33 | 43.55302 | 9.73362 | 39001 ft | 490 kts | 130° |
| 2026-05-05 07:34 | 43.50795 | 9.80396 | 39001 ft | 489 kts | 130° |
| 2026-05-05 07:34 | 43.46308 | 9.87391 | 39001 ft | 490 kts | 130° |
| 2026-05-05 07:35 | 43.41780 | 9.94411 | 39005 ft | 490 kts | 130° |
| 2026-05-05 07:35 | 43.37251 | 10.01413 | 38999 ft | 489 kts | 130° |
| 2026-05-05 07:36 | 43.32722 | 10.08408 | 38999 ft | 490 kts | 131° |
| 2026-05-05 07:36 | 43.28960 | 10.14206 | 39001 ft | 490 kts | 130° |
| 2026-05-05 07:37 | 43.23689 | 10.22307 | 39000 ft | 490 kts | 131° |
| 2026-05-05 07:37 | 43.19151 | 10.29265 | 38998 ft | 490 kts | 131° |
| 2026-05-05 07:38 | 43.15368 | 10.35052 | 39003 ft | 490 kts | 131° |
| 2026-05-05 07:38 | 43.10814 | 10.42004 | 38999 ft | 489 kts | 131° |
| 2026-05-05 07:39 | 43.06262 | 10.48935 | 39001 ft | 490 kts | 131° |
| 2026-05-05 07:39 | 43.00964 | 10.56982 | 39006 ft | 490 kts | 131° |
| 2026-05-05 07:40 | 42.97142 | 10.62774 | 38999 ft | 490 kts | 131° |
| 2026-05-05 07:40 | 42.92581 | 10.69670 | 38999 ft | 490 kts | 131° |
| 2026-05-05 07:41 | 42.88047 | 10.76508 | 38998 ft | 490 kts | 131° |
| 2026-05-05 07:41 | 42.83465 | 10.83402 | 39000 ft | 490 kts | 131° |
| 2026-05-05 07:42 | 42.78876 | 10.90292 | 38999 ft | 491 kts | 131° |
| 2026-05-05 07:42 | 42.74288 | 10.97163 | 38998 ft | 490 kts | 131° |
| 2026-05-05 07:43 | 42.69704 | 11.04016 | 38999 ft | 489 kts | 131° |
| 2026-05-05 07:43 | 42.65246 | 11.10997 | 39001 ft | 490 kts | 129° |
| 2026-05-05 07:44 | 42.60839 | 11.18069 | 38998 ft | 490 kts | 129° |
| 2026-05-05 07:44 | 42.56409 | 11.25123 | 39001 ft | 490 kts | 129° |
| 2026-05-05 07:45 | 42.51989 | 11.32094 | 38998 ft | 490 kts | 129° |
| 2026-05-05 07:45 | 42.47528 | 11.39096 | 39002 ft | 490 kts | 130° |
| 2026-05-05 07:46 | 42.43071 | 11.46076 | 38999 ft | 490 kts | 130° |
| 2026-05-05 07:46 | 42.38607 | 11.53052 | 38999 ft | 490 kts | 130° |
| 2026-05-05 07:47 | 42.34140 | 11.60018 | 39001 ft | 490 kts | 130° |
| 2026-05-05 07:47 | 42.29670 | 11.66971 | 39001 ft | 490 kts | 130° |
| 2026-05-05 07:48 | 42.25198 | 11.73914 | 38999 ft | 490 kts | 130° |
| 2026-05-05 07:48 | 42.20751 | 11.80800 | 38998 ft | 490 kts | 130° |
| 2026-05-05 07:49 | 42.16267 | 11.87727 | 38998 ft | 490 kts | 130° |
| 2026-05-05 07:49 | 42.11764 | 11.94666 | 39001 ft | 492 kts | 130° |
| 2026-05-05 07:50 | 42.07254 | 12.01601 | 39000 ft | 492 kts | 130° |
| 2026-05-05 07:50 | 42.02730 | 12.08541 | 39002 ft | 492 kts | 130° |
| 2026-05-05 07:51 | 41.98222 | 12.15438 | 38999 ft | 491 kts | 130° |
| 2026-05-05 07:51 | 41.93716 | 12.22319 | 38999 ft | 490 kts | 130° |
| 2026-05-05 07:52 | 41.89235 | 12.29146 | 38998 ft | 490 kts | 130° |
| 2026-05-05 07:52 | 41.84715 | 12.36012 | 38998 ft | 490 kts | 130° |
| 2026-05-05 07:53 | 41.80199 | 12.42862 | 38999 ft | 490 kts | 130° |
| 2026-05-05 07:53 | 41.75676 | 12.49704 | 38999 ft | 490 kts | 130° |
| 2026-05-05 07:54 | 41.71147 | 12.56539 | 39001 ft | 490 kts | 130° |
| 2026-05-05 07:54 | 41.66615 | 12.63363 | 39001 ft | 490 kts | 131° |
| 2026-05-05 07:55 | 41.62107 | 12.70136 | 39001 ft | 490 kts | 130° |
| 2026-05-05 07:55 | 41.57566 | 12.76941 | 39001 ft | 490 kts | 131° |
| 2026-05-05 07:56 | 41.53030 | 12.83726 | 39005 ft | 490 kts | 131° |
| 2026-05-05 07:56 | 41.48485 | 12.90506 | 39001 ft | 490 kts | 131° |
| 2026-05-05 07:57 | 41.43935 | 12.97280 | 38999 ft | 490 kts | 131° |
| 2026-05-05 07:57 | 41.39413 | 13.03997 | 39001 ft | 490 kts | 131° |
| 2026-05-05 07:58 | 41.34854 | 13.10751 | 38999 ft | 490 kts | 131° |
| 2026-05-05 07:58 | 41.30293 | 13.17498 | 38999 ft | 490 kts | 131° |
| 2026-05-05 07:59 | 41.25743 | 13.24209 | 39002 ft | 489 kts | 131° |
| 2026-05-05 07:59 | 41.21158 | 13.30957 | 38998 ft | 489 kts | 131° |
| 2026-05-05 08:00 | 41.16590 | 13.37660 | 39002 ft | 489 kts | 131° |
| 2026-05-05 08:00 | 41.12050 | 13.44314 | 38999 ft | 489 kts | 131° |
| 2026-05-05 08:01 | 41.07470 | 13.51014 | 38998 ft | 489 kts | 131° |
| 2026-05-05 08:01 | 41.02885 | 13.57704 | 38998 ft | 489 kts | 131° |
| 2026-05-05 08:02 | 40.98303 | 13.64374 | 39002 ft | 489 kts | 131° |
| 2026-05-05 08:02 | 40.93720 | 13.71027 | 38998 ft | 489 kts | 131° |
| 2026-05-05 08:03 | 40.89154 | 13.77643 | 38998 ft | 489 kts | 131° |
| 2026-05-05 08:03 | 40.84563 | 13.84282 | 38998 ft | 489 kts | 131° |
| 2026-05-05 08:04 | 40.79956 | 13.90930 | 39001 ft | 489 kts | 131° |
| 2026-05-05 08:04 | 40.75356 | 13.97554 | 38999 ft | 489 kts | 131° |
| 2026-05-05 08:05 | 40.70746 | 14.04173 | 38998 ft | 489 kts | 131° |
| 2026-05-05 08:05 | 40.66140 | 14.10777 | 39001 ft | 489 kts | 131° |
| 2026-05-05 08:06 | 40.61520 | 14.17379 | 39001 ft | 489 kts | 131° |
| 2026-05-05 08:06 | 40.56903 | 14.23967 | 38999 ft | 489 kts | 131° |
| 2026-05-05 08:07 | 40.52281 | 14.30547 | 39002 ft | 490 kts | 131° |
| 2026-05-05 08:07 | 40.47656 | 14.37117 | 39001 ft | 490 kts | 132° |
| 2026-05-05 08:08 | 40.43057 | 14.43636 | 39001 ft | 489 kts | 132° |
| 2026-05-05 08:08 | 40.38423 | 14.50190 | 39000 ft | 489 kts | 132° |
| 2026-05-05 08:09 | 40.33783 | 14.56740 | 39001 ft | 489 kts | 132° |
| 2026-05-05 08:09 | 40.29147 | 14.63270 | 39002 ft | 489 kts | 132° |
| 2026-05-05 08:10 | 40.24528 | 14.69761 | 39006 ft | 489 kts | 132° |
| 2026-05-05 08:10 | 40.19880 | 14.76277 | 38999 ft | 489 kts | 132° |
| 2026-05-05 08:11 | 40.15225 | 14.82793 | 38999 ft | 489 kts | 132° |
| 2026-05-05 08:11 | 40.10582 | 14.89291 | 39000 ft | 489 kts | 132° |
| 2026-05-05 08:12 | 40.05942 | 14.95790 | 38998 ft | 489 kts | 132° |
| 2026-05-05 08:12 | 40.01293 | 15.02288 | 38999 ft | 489 kts | 132° |
| 2026-05-05 08:13 | 39.96637 | 15.08774 | 39003 ft | 489 kts | 132° |
| 2026-05-05 08:13 | 39.91977 | 15.15249 | 38999 ft | 489 kts | 132° |
| 2026-05-05 08:14 | 39.87314 | 15.21716 | 39002 ft | 489 kts | 132° |
| 2026-05-05 08:14 | 39.82675 | 15.28139 | 39003 ft | 489 kts | 132° |
| 2026-05-05 08:15 | 39.78005 | 15.34592 | 39002 ft | 489 kts | 132° |
| 2026-05-05 08:15 | 39.73336 | 15.41030 | 38998 ft | 489 kts | 132° |
| 2026-05-05 08:16 | 39.68659 | 15.47463 | 38999 ft | 489 kts | 132° |
| 2026-05-05 08:16 | 39.63980 | 15.53889 | 39003 ft | 489 kts | 132° |
| 2026-05-05 08:17 | 39.59302 | 15.60304 | 38999 ft | 489 kts | 133° |
| 2026-05-05 08:17 | 39.54611 | 15.66710 | 38999 ft | 489 kts | 132° |
| 2026-05-05 08:18 | 39.49923 | 15.73101 | 38999 ft | 489 kts | 133° |
| 2026-05-05 08:18 | 39.45226 | 15.79495 | 38999 ft | 489 kts | 132° |
| 2026-05-05 08:19 | 39.40555 | 15.85838 | 38998 ft | 489 kts | 133° |
| 2026-05-05 08:19 | 39.35853 | 15.92212 | 39004 ft | 489 kts | 132° |
| 2026-05-05 08:20 | 39.31149 | 15.98579 | 38999 ft | 489 kts | 133° |
| 2026-05-05 08:20 | 39.26441 | 16.04937 | 38998 ft | 489 kts | 133° |
| 2026-05-05 08:21 | 39.21724 | 16.11291 | 38998 ft | 491 kts | 133° |
| 2026-05-05 08:21 | 39.17006 | 16.17635 | 39000 ft | 495 kts | 133° |
| 2026-05-05 08:22 | 39.12231 | 16.24039 | 39002 ft | 496 kts | 133° |
| 2026-05-05 08:22 | 39.07462 | 16.30420 | 38997 ft | 493 kts | 133° |
| 2026-05-05 08:23 | 39.02695 | 16.36787 | 38999 ft | 495 kts | 133° |
| 2026-05-05 08:23 | 38.97904 | 16.43187 | 39000 ft | 497 kts | 133° |
| 2026-05-05 08:24 | 38.93915 | 16.48484 | 39001 ft | 495 kts | 133° |
| 2026-05-05 08:24 | 38.89138 | 16.54823 | 38999 ft | 492 kts | 133° |
| 2026-05-05 08:25 | 38.84388 | 16.61121 | 39000 ft | 490 kts | 133° |
| 2026-05-05 08:25 | 38.79639 | 16.67407 | 39001 ft | 490 kts | 133° |
| 2026-05-05 08:26 | 38.74896 | 16.73671 | 38998 ft | 489 kts | 133° |
| 2026-05-05 08:26 | 38.70150 | 16.79925 | 38998 ft | 489 kts | 133° |
| 2026-05-05 08:27 | 38.65399 | 16.86169 | 39000 ft | 489 kts | 133° |
| 2026-05-05 08:27 | 38.60641 | 16.92407 | 38998 ft | 489 kts | 133° |
| 2026-05-05 08:28 | 38.55912 | 16.98596 | 39001 ft | 489 kts | 133° |
| 2026-05-05 08:28 | 38.51145 | 17.04825 | 39000 ft | 489 kts | 133° |
| 2026-05-05 08:29 | 38.46381 | 17.11036 | 39001 ft | 489 kts | 133° |
| 2026-05-05 08:30 | 38.39251 | 17.20318 | 39007 ft | 489 kts | 133° |
| 2026-05-05 08:30 | 38.34483 | 17.26507 | 39006 ft | 489 kts | 134° |
| 2026-05-05 08:31 | 38.29700 | 17.32696 | 38999 ft | 489 kts | 134° |
| 2026-05-05 08:31 | 38.24928 | 17.38862 | 38998 ft | 489 kts | 134° |
| 2026-05-05 08:32 | 38.20143 | 17.45036 | 38999 ft | 489 kts | 133° |
| 2026-05-05 08:32 | 38.15359 | 17.51196 | 38998 ft | 489 kts | 134° |
| 2026-05-05 08:33 | 38.10592 | 17.57322 | 39001 ft | 489 kts | 134° |
| 2026-05-05 08:33 | 38.05802 | 17.63463 | 38998 ft | 489 kts | 134° |
| 2026-05-05 08:34 | 38.01000 | 17.69608 | 38998 ft | 489 kts | 134° |
| 2026-05-05 08:34 | 37.96200 | 17.75738 | 38999 ft | 489 kts | 134° |
| 2026-05-05 08:35 | 37.91401 | 17.81856 | 39006 ft | 489 kts | 134° |
| 2026-05-05 08:35 | 37.86627 | 17.87929 | 39000 ft | 489 kts | 134° |
| 2026-05-05 08:36 | 37.81816 | 17.94036 | 38998 ft | 489 kts | 134° |
| 2026-05-05 08:36 | 37.77005 | 18.00132 | 39002 ft | 489 kts | 134° |
| 2026-05-05 08:37 | 37.72191 | 18.06219 | 39001 ft | 489 kts | 134° |
| 2026-05-05 08:37 | 37.67372 | 18.12303 | 38998 ft | 489 kts | 134° |
| 2026-05-05 08:38 | 37.62549 | 18.18379 | 38999 ft | 489 kts | 134° |
| 2026-05-05 08:38 | 37.57722 | 18.24449 | 39002 ft | 489 kts | 134° |
| 2026-05-05 08:39 | 37.52924 | 18.30467 | 39001 ft | 489 kts | 134° |
| 2026-05-05 08:39 | 37.48095 | 18.36518 | 39001 ft | 489 kts | 134° |
| 2026-05-05 08:40 | 37.43265 | 18.42559 | 38999 ft | 489 kts | 134° |
| 2026-05-05 08:40 | 37.38437 | 18.48581 | 38999 ft | 489 kts | 134° |
| 2026-05-05 08:41 | 37.33598 | 18.54607 | 38999 ft | 489 kts | 134° |
| 2026-05-05 08:41 | 37.28749 | 18.60633 | 38999 ft | 489 kts | 134° |
| 2026-05-05 08:42 | 37.23905 | 18.66641 | 39000 ft | 489 kts | 134° |
| 2026-05-05 08:42 | 37.19088 | 18.72605 | 38998 ft | 489 kts | 134° |
| 2026-05-05 08:43 | 37.14236 | 18.78602 | 38998 ft | 489 kts | 134° |
| 2026-05-05 08:43 | 37.09379 | 18.84592 | 38998 ft | 489 kts | 134° |
| 2026-05-05 08:44 | 37.04521 | 18.90573 | 38999 ft | 489 kts | 134° |
| 2026-05-05 08:44 | 36.99659 | 18.96546 | 38999 ft | 489 kts | 134° |
| 2026-05-05 08:45 | 36.95327 | 19.03069 | 38997 ft | 488 kts | 123° |
| 2026-05-05 08:45 | 36.91611 | 19.10196 | 38998 ft | 489 kts | 121° |
| 2026-05-05 08:46 | 36.88020 | 19.17375 | 38998 ft | 490 kts | 121° |
| 2026-05-05 08:46 | 36.84411 | 19.24586 | 38998 ft | 490 kts | 121° |
| 2026-05-05 08:47 | 36.80779 | 19.31782 | 38998 ft | 490 kts | 121° |
| 2026-05-05 08:47 | 36.77131 | 19.38963 | 38998 ft | 490 kts | 121° |
| 2026-05-05 08:48 | 36.73474 | 19.46151 | 39000 ft | 490 kts | 121° |
| 2026-05-05 08:48 | 36.69814 | 19.53330 | 39003 ft | 490 kts | 121° |
| 2026-05-05 08:49 | 36.66180 | 19.60443 | 39006 ft | 490 kts | 121° |
| 2026-05-05 08:49 | 36.62510 | 19.67610 | 38998 ft | 490 kts | 121° |
| 2026-05-05 08:50 | 36.58843 | 19.74757 | 38998 ft | 490 kts | 121° |
| 2026-05-05 08:50 | 36.55171 | 19.81899 | 38998 ft | 490 kts | 122° |
| 2026-05-05 08:51 | 36.51499 | 19.89026 | 39001 ft | 490 kts | 121° |
| 2026-05-05 08:51 | 36.47816 | 19.96162 | 38998 ft | 490 kts | 121° |
| 2026-05-05 08:52 | 36.44134 | 20.03277 | 38998 ft | 490 kts | 121° |
| 2026-05-05 08:52 | 36.40473 | 20.10340 | 38998 ft | 490 kts | 122° |
| 2026-05-05 08:53 | 36.36783 | 20.17441 | 39000 ft | 490 kts | 122° |
| 2026-05-05 08:53 | 36.33088 | 20.24540 | 39003 ft | 490 kts | 122° |
| 2026-05-05 08:54 | 36.29390 | 20.31626 | 39002 ft | 490 kts | 122° |
| 2026-05-05 08:54 | 36.25682 | 20.38718 | 38998 ft | 490 kts | 122° |
| 2026-05-05 08:55 | 36.21973 | 20.45800 | 39006 ft | 490 kts | 122° |
| 2026-05-05 08:55 | 36.18260 | 20.52872 | 38998 ft | 490 kts | 122° |
| 2026-05-05 08:56 | 36.14545 | 20.59935 | 38998 ft | 490 kts | 122° |
| 2026-05-05 08:56 | 36.10821 | 20.67001 | 39006 ft | 490 kts | 122° |
| 2026-05-05 08:57 | 36.07118 | 20.74011 | 38998 ft | 490 kts | 122° |
| 2026-05-05 08:57 | 36.03382 | 20.81068 | 39001 ft | 490 kts | 122° |
| 2026-05-05 08:58 | 35.99651 | 20.88103 | 38998 ft | 490 kts | 122° |
| 2026-05-05 08:58 | 35.95908 | 20.95144 | 39009 ft | 490 kts | 122° |
| 2026-05-05 08:59 | 35.92168 | 21.02165 | 39001 ft | 490 kts | 122° |
| 2026-05-05 08:59 | 35.88425 | 21.09182 | 39000 ft | 490 kts | 122° |
| 2026-05-05 09:00 | 35.84672 | 21.16201 | 39001 ft | 490 kts | 122° |
| 2026-05-05 09:00 | 35.80921 | 21.23198 | 39000 ft | 490 kts | 122° |
| 2026-05-05 09:01 | 35.77187 | 21.30152 | 38998 ft | 490 kts | 122° |
| 2026-05-05 09:01 | 35.73400 | 21.37192 | 38998 ft | 490 kts | 122° |
| 2026-05-05 09:02 | 35.69657 | 21.44133 | 39002 ft | 490 kts | 122° |
| 2026-05-05 09:02 | 35.65887 | 21.51114 | 38998 ft | 490 kts | 122° |
| 2026-05-05 09:03 | 35.62110 | 21.58091 | 38998 ft | 490 kts | 122° |
| 2026-05-05 09:03 | 35.58334 | 21.65055 | 39002 ft | 490 kts | 122° |
| 2026-05-05 09:04 | 35.54551 | 21.72016 | 39002 ft | 490 kts | 123° |
| 2026-05-05 09:04 | 35.50763 | 21.78973 | 38998 ft | 490 kts | 123° |
| 2026-05-05 09:05 | 35.46972 | 21.85922 | 38998 ft | 490 kts | 122° |
| 2026-05-05 09:05 | 35.43179 | 21.92861 | 38998 ft | 490 kts | 123° |
| 2026-05-05 09:06 | 35.39406 | 21.99747 | 39006 ft | 490 kts | 123° |
| 2026-05-05 09:06 | 35.35603 | 22.06678 | 38998 ft | 490 kts | 123° |
| 2026-05-05 09:07 | 35.31797 | 22.13599 | 39002 ft | 490 kts | 123° |
| 2026-05-05 09:07 | 35.27987 | 22.20513 | 39000 ft | 490 kts | 123° |
| 2026-05-05 09:08 | 35.24175 | 22.27415 | 38998 ft | 490 kts | 123° |
| 2026-05-05 09:08 | 35.20356 | 22.34320 | 38998 ft | 490 kts | 123° |
| 2026-05-05 09:09 | 35.16555 | 22.41177 | 39004 ft | 490 kts | 123° |
| 2026-05-05 09:09 | 35.12727 | 22.48068 | 38998 ft | 490 kts | 123° |
| 2026-05-05 09:10 | 35.08899 | 22.54949 | 39001 ft | 490 kts | 123° |
| 2026-05-05 09:10 | 35.05716 | 22.60657 | 38998 ft | 490 kts | 123° |
| 2026-05-05 09:11 | 35.01874 | 22.67534 | 38998 ft | 490 kts | 123° |
| 2026-05-05 09:11 | 34.98038 | 22.74390 | 38998 ft | 490 kts | 123° |
| 2026-05-05 09:12 | 34.94192 | 22.81252 | 39000 ft | 490 kts | 123° |
| 2026-05-05 09:12 | 34.90344 | 22.88104 | 38998 ft | 490 kts | 123° |
| 2026-05-05 09:13 | 34.86507 | 22.94920 | 38998 ft | 490 kts | 123° |
| 2026-05-05 09:13 | 34.82654 | 23.01754 | 38998 ft | 490 kts | 123° |
| 2026-05-05 09:14 | 34.78794 | 23.08584 | 38998 ft | 490 kts | 123° |
| 2026-05-05 09:14 | 34.74929 | 23.15411 | 38998 ft | 490 kts | 123° |
| 2026-05-05 09:15 | 34.71064 | 23.22225 | 38998 ft | 490 kts | 123° |
| 2026-05-05 09:15 | 34.67189 | 23.29044 | 38998 ft | 490 kts | 123° |
| 2026-05-05 09:16 | 34.63343 | 23.35799 | 38998 ft | 490 kts | 124° |
| 2026-05-05 09:16 | 34.59460 | 23.42608 | 39001 ft | 490 kts | 123° |
| 2026-05-05 09:17 | 34.55577 | 23.49403 | 39007 ft | 490 kts | 124° |
| 2026-05-05 09:17 | 34.51691 | 23.56190 | 38998 ft | 490 kts | 124° |
| 2026-05-05 09:18 | 34.47799 | 23.62973 | 38998 ft | 490 kts | 124° |
| 2026-05-05 09:18 | 34.43925 | 23.69711 | 38998 ft | 490 kts | 124° |
| 2026-05-05 09:19 | 34.40031 | 23.76474 | 39004 ft | 490 kts | 124° |
| 2026-05-05 09:19 | 34.36131 | 23.83233 | 39003 ft | 490 kts | 124° |
| 2026-05-05 09:20 | 34.32228 | 23.89984 | 38998 ft | 490 kts | 124° |
| 2026-05-05 09:20 | 34.28316 | 23.96740 | 38998 ft | 490 kts | 124° |
| 2026-05-05 09:21 | 34.24404 | 24.03484 | 39001 ft | 490 kts | 124° |
| 2026-05-05 09:21 | 34.20486 | 24.10226 | 39001 ft | 490 kts | 124° |
| 2026-05-05 09:22 | 34.16596 | 24.16908 | 39003 ft | 490 kts | 124° |
| 2026-05-05 09:22 | 34.12668 | 24.23637 | 38998 ft | 490 kts | 124° |
| 2026-05-05 09:23 | 34.08738 | 24.30357 | 38998 ft | 490 kts | 124° |
| 2026-05-05 09:23 | 34.04808 | 24.37069 | 39001 ft | 490 kts | 124° |
| 2026-05-05 09:24 | 34.00814 | 24.43717 | 38994 ft | 490 kts | 129° |
| 2026-05-05 09:24 | 33.96028 | 24.49561 | 39000 ft | 490 kts | 136° |
| 2026-05-05 09:25 | 33.90970 | 24.55046 | 39001 ft | 489 kts | 137° |
| 2026-05-05 09:25 | 33.85891 | 24.60432 | 39001 ft | 489 kts | 137° |
| 2026-05-05 09:26 | 33.80787 | 24.65866 | 38998 ft | 489 kts | 137° |
| 2026-05-05 09:26 | 33.75701 | 24.71303 | 39006 ft | 489 kts | 137° |
| 2026-05-05 09:27 | 33.70614 | 24.76744 | 38998 ft | 489 kts | 137° |
| 2026-05-05 09:27 | 33.65523 | 24.82180 | 38998 ft | 489 kts | 137° |
| 2026-05-05 09:28 | 33.60465 | 24.87572 | 38998 ft | 489 kts | 137° |
| 2026-05-05 09:28 | 33.55374 | 24.92988 | 39000 ft | 489 kts | 137° |
| 2026-05-05 09:29 | 33.50281 | 24.98398 | 38998 ft | 489 kts | 137° |
| 2026-05-05 09:29 | 33.45173 | 25.03816 | 38998 ft | 489 kts | 137° |
| 2026-05-05 09:30 | 33.40065 | 25.09224 | 39002 ft | 489 kts | 137° |
| 2026-05-05 09:30 | 33.34964 | 25.14616 | 38998 ft | 489 kts | 137° |
| 2026-05-05 09:31 | 33.29884 | 25.19977 | 38998 ft | 489 kts | 137° |
| 2026-05-05 09:31 | 33.24778 | 25.25357 | 39000 ft | 489 kts | 137° |
| 2026-05-05 09:32 | 33.19672 | 25.30727 | 39000 ft | 489 kts | 137° |
| 2026-05-05 09:32 | 33.14552 | 25.36103 | 38998 ft | 489 kts | 137° |
| 2026-05-05 09:33 | 33.09443 | 25.41460 | 39000 ft | 489 kts | 137° |
| 2026-05-05 09:33 | 33.04324 | 25.46820 | 38998 ft | 489 kts | 138° |
| 2026-05-05 09:34 | 32.99208 | 25.52167 | 38998 ft | 489 kts | 137° |
| 2026-05-05 09:34 | 32.94085 | 25.57512 | 39001 ft | 489 kts | 138° |
| 2026-05-05 09:35 | 32.88963 | 25.62849 | 39000 ft | 489 kts | 138° |
| 2026-05-05 09:35 | 32.81296 | 25.70819 | 39001 ft | 489 kts | 138° |
| 2026-05-05 09:36 | 32.76163 | 25.76145 | 39000 ft | 489 kts | 138° |
| 2026-05-05 09:36 | 32.71028 | 25.81463 | 39001 ft | 489 kts | 138° |
| 2026-05-05 09:37 | 32.65893 | 25.86775 | 39000 ft | 489 kts | 138° |
| 2026-05-05 09:37 | 32.60758 | 25.92078 | 38998 ft | 489 kts | 138° |
| 2026-05-05 09:38 | 32.55645 | 25.97351 | 39001 ft | 489 kts | 138° |
| 2026-05-05 09:38 | 32.50510 | 26.02637 | 39002 ft | 489 kts | 138° |
| 2026-05-05 09:39 | 32.45364 | 26.07925 | 39001 ft | 489 kts | 138° |
| 2026-05-05 09:39 | 32.40219 | 26.13205 | 38998 ft | 489 kts | 138° |
| 2026-05-05 09:40 | 32.35073 | 26.18478 | 39001 ft | 489 kts | 138° |
| 2026-05-05 09:40 | 32.29918 | 26.23751 | 38998 ft | 489 kts | 138° |
| 2026-05-05 09:41 | 32.24764 | 26.29017 | 39000 ft | 489 kts | 138° |
| 2026-05-05 09:41 | 32.19611 | 26.34276 | 39003 ft | 489 kts | 138° |
| 2026-05-05 09:42 | 32.14457 | 26.39518 | 38998 ft | 489 kts | 138° |
| 2026-05-05 09:42 | 32.09295 | 26.44766 | 38998 ft | 489 kts | 138° |
| 2026-05-05 09:43 | 32.04165 | 26.49973 | 38999 ft | 489 kts | 138° |
| 2026-05-05 09:43 | 31.98998 | 26.55210 | 38999 ft | 489 kts | 138° |
| 2026-05-05 09:44 | 31.93837 | 26.60435 | 39001 ft | 489 kts | 138° |
| 2026-05-05 09:44 | 31.88669 | 26.65655 | 39002 ft | 489 kts | 138° |
| 2026-05-05 09:45 | 31.83498 | 26.70872 | 38998 ft | 489 kts | 138° |
| 2026-05-05 09:45 | 31.78325 | 26.76085 | 38998 ft | 489 kts | 139° |
| 2026-05-05 09:46 | 31.73193 | 26.81246 | 38998 ft | 489 kts | 138° |
| 2026-05-05 09:46 | 31.68019 | 26.86441 | 38998 ft | 489 kts | 139° |
| 2026-05-05 09:47 | 31.62835 | 26.91638 | 39002 ft | 489 kts | 139° |
| 2026-05-05 09:47 | 31.57650 | 26.96829 | 39001 ft | 489 kts | 139° |
| 2026-05-05 09:48 | 31.52466 | 27.02012 | 39001 ft | 489 kts | 139° |
| 2026-05-05 09:48 | 31.47320 | 27.07148 | 39002 ft | 489 kts | 139° |
| 2026-05-05 09:49 | 31.42133 | 27.12319 | 39000 ft | 489 kts | 139° |
| 2026-05-05 09:49 | 31.36941 | 27.17484 | 38999 ft | 489 kts | 139° |
| 2026-05-05 09:50 | 31.31987 | 27.22924 | 39005 ft | 488 kts | 129° |
| 2026-05-05 09:50 | 31.27959 | 27.29316 | 38997 ft | 489 kts | 123° |
| 2026-05-05 09:51 | 31.24144 | 27.35907 | 39007 ft | 490 kts | 123° |
| 2026-05-05 09:51 | 31.20377 | 27.42479 | 38998 ft | 490 kts | 123° |
| 2026-05-05 09:52 | 31.16565 | 27.49077 | 39002 ft | 490 kts | 123° |
| 2026-05-05 09:52 | 31.12733 | 27.55669 | 39002 ft | 490 kts | 123° |
| 2026-05-05 09:53 | 31.08852 | 27.62213 | 39002 ft | 491 kts | 124° |
| 2026-05-05 09:53 | 31.04934 | 27.68739 | 39005 ft | 491 kts | 124° |
| 2026-05-05 09:54 | 31.01019 | 27.75264 | 38998 ft | 491 kts | 124° |
| 2026-05-05 09:54 | 30.97114 | 27.81780 | 38998 ft | 491 kts | 124° |
| 2026-05-05 09:55 | 30.93204 | 27.88300 | 39001 ft | 491 kts | 124° |
| 2026-05-05 09:55 | 30.89292 | 27.94814 | 38998 ft | 491 kts | 124° |
| 2026-05-05 09:56 | 30.85388 | 28.01302 | 39006 ft | 491 kts | 124° |
| 2026-05-05 09:56 | 30.81469 | 28.07805 | 39002 ft | 490 kts | 124° |
| 2026-05-05 09:57 | 30.77548 | 28.14299 | 38998 ft | 490 kts | 124° |
| 2026-05-05 09:57 | 30.73647 | 28.20750 | 38998 ft | 490 kts | 124° |
| 2026-05-05 09:58 | 30.69715 | 28.27241 | 38998 ft | 491 kts | 124° |
| 2026-05-05 09:58 | 30.65781 | 28.33723 | 38998 ft | 491 kts | 124° |
| 2026-05-05 09:59 | 30.62511 | 28.39105 | 38998 ft | 491 kts | 124° |
| 2026-05-05 09:59 | 30.58574 | 28.45574 | 39001 ft | 491 kts | 124° |
| 2026-05-05 10:00 | 30.54632 | 28.52042 | 38998 ft | 491 kts | 124° |
| 2026-05-05 10:00 | 30.50683 | 28.58511 | 39001 ft | 491 kts | 124° |
| 2026-05-05 10:01 | 30.46729 | 28.64977 | 39000 ft | 491 kts | 124° |
| 2026-05-05 10:01 | 30.42799 | 28.71392 | 38999 ft | 491 kts | 124° |
| 2026-05-05 10:02 | 30.38845 | 28.77838 | 38998 ft | 491 kts | 124° |
| 2026-05-05 10:02 | 30.34884 | 28.84285 | 38998 ft | 490 kts | 124° |
| 2026-05-05 10:03 | 30.30928 | 28.90713 | 39002 ft | 490 kts | 124° |
| 2026-05-05 10:03 | 30.26998 | 28.97088 | 39006 ft | 489 kts | 124° |
| 2026-05-05 10:04 | 30.23037 | 29.03504 | 39003 ft | 489 kts | 124° |
| 2026-05-05 10:04 | 30.19077 | 29.09908 | 38998 ft | 490 kts | 124° |
| 2026-05-05 10:05 | 30.15117 | 29.16324 | 39001 ft | 490 kts | 124° |
| 2026-05-05 10:05 | 30.11167 | 29.22741 | 38998 ft | 490 kts | 124° |
| 2026-05-05 10:06 | 30.07267 | 29.29201 | 39000 ft | 490 kts | 123° |
| 2026-05-05 10:06 | 30.03401 | 29.35631 | 38998 ft | 491 kts | 123° |
| 2026-05-05 10:07 | 29.99500 | 29.42093 | 39003 ft | 491 kts | 124° |
| 2026-05-05 10:07 | 29.95591 | 29.48545 | 39000 ft | 491 kts | 124° |
| 2026-05-05 10:08 | 29.91671 | 29.54997 | 38998 ft | 491 kts | 124° |
| 2026-05-05 10:08 | 29.87751 | 29.61441 | 39001 ft | 491 kts | 124° |
| 2026-05-05 10:09 | 29.83826 | 29.67885 | 39002 ft | 490 kts | 124° |
| 2026-05-05 10:09 | 29.79899 | 29.74321 | 39001 ft | 491 kts | 124° |
| 2026-05-05 10:10 | 29.75996 | 29.80707 | 39002 ft | 491 kts | 124° |
| 2026-05-05 10:10 | 29.72065 | 29.87127 | 38998 ft | 491 kts | 124° |
| 2026-05-05 10:11 | 29.68126 | 29.93553 | 38998 ft | 491 kts | 124° |
| 2026-05-05 10:11 | 29.64184 | 29.99976 | 38998 ft | 491 kts | 124° |
| 2026-05-05 10:12 | 29.60233 | 30.06401 | 39002 ft | 492 kts | 124° |
| 2026-05-05 10:12 | 29.56281 | 30.12818 | 39002 ft | 492 kts | 124° |
| 2026-05-05 10:13 | 29.52332 | 30.19221 | 38998 ft | 492 kts | 124° |
| 2026-05-05 10:13 | 29.48365 | 30.25643 | 38998 ft | 492 kts | 124° |
| 2026-05-05 10:14 | 29.44431 | 30.32003 | 38998 ft | 491 kts | 124° |
| 2026-05-05 10:14 | 29.40444 | 30.38353 | 39045 ft | 491 kts | 128° |
| 2026-05-05 10:15 | 29.38188 | 30.41308 | 39230 ft | 490 kts | 131° |
| 2026-05-05 10:15 | 29.35871 | 30.44173 | 39440 ft | 489 kts | 132° |
| 2026-05-05 10:15 | 29.33526 | 30.47009 | 39600 ft | 489 kts | 133° |
| 2026-05-05 10:15 | 29.31170 | 30.49822 | 39744 ft | 489 kts | 133° |
| 2026-05-05 10:16 | 29.28800 | 30.52631 | 39889 ft | 489 kts | 133° |
| 2026-05-05 10:16 | 29.26463 | 30.55396 | 40028 ft | 489 kts | 133° |
| 2026-05-05 10:16 | 29.24067 | 30.58235 | 40166 ft | 489 kts | 133° |
| 2026-05-05 10:16 | 29.21732 | 30.61003 | 40296 ft | 489 kts | 133° |
| 2026-05-05 10:17 | 29.19376 | 30.63801 | 40422 ft | 489 kts | 133° |
| 2026-05-05 10:17 | 29.17012 | 30.66608 | 40552 ft | 489 kts | 133° |
| 2026-05-05 10:17 | 29.14653 | 30.69409 | 40670 ft | 489 kts | 133° |
| 2026-05-05 10:17 | 29.12289 | 30.72215 | 40787 ft | 489 kts | 133° |
| 2026-05-05 10:18 | 29.09923 | 30.75021 | 40904 ft | 489 kts | 133° |
| 2026-05-05 10:18 | 29.07559 | 30.77822 | 40987 ft | 490 kts | 133° |
| 2026-05-05 10:18 | 29.02827 | 30.83422 | 40999 ft | 490 kts | 133° |
| 2026-05-05 10:19 | 28.98078 | 30.89037 | 41000 ft | 490 kts | 133° |
| 2026-05-05 10:19 | 28.93338 | 30.94632 | 41000 ft | 490 kts | 133° |
| 2026-05-05 10:20 | 28.88600 | 31.00217 | 41000 ft | 490 kts | 133° |
| 2026-05-05 10:20 | 28.83854 | 31.05803 | 41000 ft | 490 kts | 133° |
| 2026-05-05 10:21 | 28.79106 | 31.11384 | 41000 ft | 490 kts | 133° |
| 2026-05-05 10:21 | 28.74379 | 31.16932 | 41000 ft | 491 kts | 133° |
| 2026-05-05 10:22 | 28.69596 | 31.22539 | 41001 ft | 491 kts | 133° |
| 2026-05-05 10:22 | 28.64997 | 31.28213 | 40999 ft | 491 kts | 130° |
| 2026-05-05 10:23 | 28.60457 | 31.34025 | 40999 ft | 491 kts | 130° |
| 2026-05-05 10:23 | 28.55905 | 31.39816 | 40999 ft | 491 kts | 130° |
| 2026-05-05 10:24 | 28.51317 | 31.45596 | 41000 ft | 492 kts | 131° |
| 2026-05-05 10:24 | 28.46718 | 31.51361 | 41002 ft | 492 kts | 131° |
| 2026-05-05 10:25 | 28.42115 | 31.57121 | 41000 ft | 492 kts | 131° |
| 2026-05-05 10:25 | 28.37529 | 31.62854 | 40999 ft | 492 kts | 131° |
| 2026-05-05 10:26 | 28.32919 | 31.68613 | 40999 ft | 493 kts | 131° |
| 2026-05-05 10:26 | 28.28305 | 31.74367 | 40999 ft | 493 kts | 131° |
| 2026-05-05 10:27 | 28.23684 | 31.80121 | 41001 ft | 493 kts | 131° |
| 2026-05-05 10:27 | 28.19067 | 31.85863 | 41000 ft | 493 kts | 131° |
| 2026-05-05 10:28 | 28.14446 | 31.91601 | 41000 ft | 493 kts | 131° |
| 2026-05-05 10:28 | 28.09814 | 31.97348 | 41001 ft | 494 kts | 131° |
| 2026-05-05 10:29 | 28.05220 | 32.03066 | 41005 ft | 494 kts | 129° |
| 2026-05-05 10:29 | 28.01396 | 32.09488 | 40996 ft | 493 kts | 118° |
| 2026-05-05 10:30 | 27.98056 | 32.16275 | 40998 ft | 494 kts | 117° |
| 2026-05-05 10:30 | 27.94785 | 32.23140 | 40999 ft | 495 kts | 117° |
| 2026-05-05 10:31 | 27.91505 | 32.29996 | 40999 ft | 495 kts | 117° |
| 2026-05-05 10:31 | 27.88225 | 32.36800 | 41000 ft | 496 kts | 117° |
| 2026-05-05 10:32 | 27.84918 | 32.43627 | 41000 ft | 495 kts | 117° |
| 2026-05-05 10:32 | 27.81611 | 32.50441 | 40999 ft | 494 kts | 118° |
| 2026-05-05 10:33 | 27.78304 | 32.57247 | 41001 ft | 494 kts | 117° |
| 2026-05-05 10:33 | 27.74992 | 32.64053 | 41000 ft | 494 kts | 117° |
| 2026-05-05 10:34 | 27.71679 | 32.70848 | 41000 ft | 493 kts | 117° |
| 2026-05-05 10:34 | 27.68364 | 32.77639 | 41000 ft | 494 kts | 117° |
| 2026-05-05 10:35 | 27.65068 | 32.84379 | 40999 ft | 494 kts | 117° |
| 2026-05-05 10:35 | 27.61743 | 32.91166 | 41002 ft | 495 kts | 118° |
| 2026-05-05 10:36 | 27.58409 | 32.97961 | 41002 ft | 494 kts | 118° |
| 2026-05-05 10:36 | 27.55080 | 33.04739 | 41001 ft | 495 kts | 118° |
| 2026-05-05 10:37 | 27.51741 | 33.11525 | 40999 ft | 494 kts | 118° |
| 2026-05-05 10:37 | 27.48411 | 33.18279 | 41001 ft | 493 kts | 118° |
| 2026-05-05 10:38 | 27.45092 | 33.24999 | 41002 ft | 492 kts | 118° |
| 2026-05-05 10:38 | 27.41759 | 33.31739 | 40999 ft | 492 kts | 118° |
| 2026-05-05 10:39 | 27.38428 | 33.38466 | 41001 ft | 491 kts | 118° |
| 2026-05-05 10:39 | 27.35100 | 33.45177 | 40999 ft | 491 kts | 118° |
| 2026-05-05 10:40 | 27.31765 | 33.51885 | 40999 ft | 491 kts | 118° |
| 2026-05-05 10:40 | 27.28428 | 33.58586 | 41001 ft | 491 kts | 118° |
| 2026-05-05 10:41 | 27.25110 | 33.65241 | 40999 ft | 491 kts | 118° |
| 2026-05-05 10:41 | 27.21781 | 33.71909 | 41000 ft | 490 kts | 118° |
| 2026-05-05 10:42 | 27.17065 | 33.82120 | 40997 ft | 489 kts | 112° |
| 2026-05-05 10:43 | 27.14476 | 33.89197 | 41000 ft | 490 kts | 110° |
| 2026-05-05 10:43 | 27.11963 | 33.96307 | 41001 ft | 490 kts | 110° |
| 2026-05-05 10:44 | 27.09452 | 34.03412 | 40999 ft | 490 kts | 110° |
| 2026-05-05 10:44 | 27.06923 | 34.10521 | 40998 ft | 490 kts | 111° |
| 2026-05-05 10:45 | 27.04816 | 34.16413 | 40997 ft | 490 kts | 110° |
| 2026-05-05 10:45 | 27.01859 | 34.24668 | 40999 ft | 490 kts | 111° |
| 2026-05-05 10:46 | 26.99728 | 34.30609 | 41001 ft | 490 kts | 111° |
| 2026-05-05 10:46 | 26.97178 | 34.37696 | 40999 ft | 490 kts | 111° |
| 2026-05-05 10:47 | 26.94639 | 34.44739 | 41001 ft | 490 kts | 111° |
| 2026-05-05 10:47 | 26.92082 | 34.51824 | 41002 ft | 490 kts | 111° |
| 2026-05-05 10:48 | 26.89521 | 34.58907 | 41000 ft | 490 kts | 111° |
| 2026-05-05 10:48 | 26.86961 | 34.65977 | 40998 ft | 490 kts | 111° |
| 2026-05-05 10:49 | 26.84396 | 34.73044 | 41002 ft | 490 kts | 111° |
| 2026-05-05 10:49 | 26.81827 | 34.80108 | 41001 ft | 490 kts | 111° |
| 2026-05-05 10:50 | 26.79265 | 34.87140 | 41001 ft | 490 kts | 111° |
| 2026-05-05 10:50 | 26.76689 | 34.94201 | 41002 ft | 490 kts | 111° |
| 2026-05-05 10:51 | 26.74114 | 35.01256 | 41002 ft | 490 kts | 111° |
| 2026-05-05 10:51 | 26.71528 | 35.08322 | 41000 ft | 490 kts | 111° |
| 2026-05-05 10:52 | 26.68942 | 35.15376 | 41000 ft | 490 kts | 111° |
| 2026-05-05 10:52 | 26.66352 | 35.22429 | 41001 ft | 490 kts | 111° |
| 2026-05-05 10:53 | 26.63778 | 35.29427 | 41000 ft | 490 kts | 111° |
| 2026-05-05 10:53 | 26.61184 | 35.36469 | 41001 ft | 490 kts | 111° |
| 2026-05-05 10:54 | 26.58582 | 35.43517 | 40998 ft | 490 kts | 111° |
| 2026-05-05 10:54 | 26.55975 | 35.50560 | 41002 ft | 490 kts | 111° |
| 2026-05-05 10:55 | 26.53328 | 35.57523 | 40999 ft | 490 kts | 112° |
| 2026-05-05 10:55 | 26.50637 | 35.64527 | 41000 ft | 490 kts | 112° |
| 2026-05-05 10:56 | 26.47951 | 35.71520 | 41001 ft | 490 kts | 112° |
| 2026-05-05 10:56 | 26.45265 | 35.78515 | 41000 ft | 490 kts | 112° |
| 2026-05-05 10:57 | 26.42580 | 35.85506 | 41003 ft | 490 kts | 112° |
| 2026-05-05 10:57 | 26.39894 | 35.92497 | 41002 ft | 490 kts | 112° |
| 2026-05-05 10:58 | 26.37222 | 35.99437 | 40999 ft | 490 kts | 112° |
| 2026-05-05 10:58 | 26.34527 | 36.06419 | 40999 ft | 490 kts | 112° |
| 2026-05-05 10:59 | 26.31832 | 36.13393 | 41000 ft | 490 kts | 112° |
| 2026-05-05 10:59 | 26.29127 | 36.20378 | 41000 ft | 490 kts | 112° |
| 2026-05-05 11:00 | 26.26421 | 36.27354 | 41001 ft | 490 kts | 112° |
| 2026-05-05 11:00 | 26.23715 | 36.34321 | 40998 ft | 490 kts | 112° |
| 2026-05-05 11:01 | 26.21026 | 36.41228 | 41001 ft | 490 kts | 112° |
| 2026-05-05 11:01 | 26.18278 | 36.48177 | 40993 ft | 490 kts | 116° |
| 2026-05-05 11:02 | 26.15097 | 36.54895 | 41000 ft | 490 kts | 117° |
| 2026-05-05 11:02 | 26.11828 | 36.61552 | 40999 ft | 490 kts | 118° |
| 2026-05-05 11:03 | 26.08534 | 36.68205 | 40999 ft | 490 kts | 117° |
| 2026-05-05 11:03 | 26.05246 | 36.74845 | 41000 ft | 490 kts | 118° |
| 2026-05-05 11:04 | 26.01962 | 36.81483 | 41000 ft | 490 kts | 117° |
| 2026-05-05 11:04 | 25.98692 | 36.88087 | 40999 ft | 490 kts | 118° |
| 2026-05-05 11:05 | 25.95401 | 36.94722 | 40999 ft | 490 kts | 118° |
| 2026-05-05 11:05 | 25.92108 | 37.01354 | 41000 ft | 490 kts | 117° |
| 2026-05-05 11:06 | 25.88807 | 37.07992 | 40999 ft | 490 kts | 118° |
| 2026-05-05 11:06 | 25.85504 | 37.14620 | 41000 ft | 490 kts | 118° |
| 2026-05-05 11:07 | 25.82197 | 37.21245 | 41000 ft | 491 kts | 118° |
| 2026-05-05 11:07 | 25.78889 | 37.27872 | 40999 ft | 491 kts | 118° |
| 2026-05-05 11:08 | 25.75586 | 37.34512 | 41000 ft | 491 kts | 117° |
| 2026-05-05 11:08 | 25.72278 | 37.41160 | 40999 ft | 491 kts | 117° |
| 2026-05-05 11:09 | 25.68990 | 37.47755 | 41001 ft | 492 kts | 118° |
| 2026-05-05 11:09 | 25.65674 | 37.54390 | 41000 ft | 492 kts | 118° |
| 2026-05-05 11:10 | 25.62353 | 37.61024 | 40999 ft | 492 kts | 118° |
| 2026-05-05 11:10 | 25.59032 | 37.67651 | 41000 ft | 492 kts | 118° |
| 2026-05-05 11:11 | 25.55703 | 37.74287 | 40998 ft | 493 kts | 118° |
| 2026-05-05 11:11 | 25.52364 | 37.80928 | 41001 ft | 493 kts | 118° |
| 2026-05-05 11:12 | 25.49043 | 37.87527 | 41002 ft | 493 kts | 118° |
| 2026-05-05 11:12 | 25.45697 | 37.94164 | 41001 ft | 493 kts | 118° |
| 2026-05-05 11:13 | 25.42349 | 38.00796 | 41001 ft | 494 kts | 118° |
| 2026-05-05 11:13 | 25.39014 | 38.07393 | 40999 ft | 495 kts | 118° |
| 2026-05-05 11:14 | 25.35647 | 38.14045 | 40999 ft | 496 kts | 118° |
| 2026-05-05 11:14 | 25.32276 | 38.20695 | 41000 ft | 495 kts | 118° |
| 2026-05-05 11:15 | 25.28908 | 38.27328 | 40999 ft | 494 kts | 118° |
| 2026-05-05 11:15 | 25.25547 | 38.33938 | 41000 ft | 493 kts | 118° |
| 2026-05-05 11:16 | 25.22179 | 38.40553 | 40999 ft | 494 kts | 118° |
| 2026-05-05 11:16 | 25.18806 | 38.47169 | 40999 ft | 494 kts | 118° |
| 2026-05-05 11:17 | 25.15435 | 38.53769 | 41000 ft | 494 kts | 118° |
| 2026-05-05 11:17 | 25.12076 | 38.60332 | 41000 ft | 494 kts | 118° |
| 2026-05-05 11:18 | 25.08683 | 38.66944 | 41000 ft | 495 kts | 118° |
| 2026-05-05 11:18 | 25.05280 | 38.73565 | 41000 ft | 496 kts | 118° |
| 2026-05-05 11:19 | 25.01872 | 38.80191 | 41002 ft | 497 kts | 118° |
| 2026-05-05 11:19 | 24.98461 | 38.86813 | 41002 ft | 496 kts | 118° |
| 2026-05-05 11:20 | 24.95054 | 38.93433 | 41000 ft | 494 kts | 118° |
| 2026-05-05 11:20 | 24.91662 | 39.00008 | 41000 ft | 493 kts | 118° |
| 2026-05-05 11:21 | 24.88273 | 39.06529 | 41000 ft | 493 kts | 118° |
| 2026-05-05 11:21 | 24.84860 | 39.13097 | 41001 ft | 494 kts | 118° |
| 2026-05-05 11:22 | 24.81454 | 39.19658 | 40999 ft | 493 kts | 118° |
| 2026-05-05 11:22 | 24.78047 | 39.26222 | 41000 ft | 493 kts | 118° |
| 2026-05-05 11:23 | 24.74633 | 39.32780 | 41002 ft | 494 kts | 118° |
| 2026-05-05 11:23 | 24.71204 | 39.39356 | 40999 ft | 495 kts | 118° |
| 2026-05-05 11:24 | 24.67768 | 39.45938 | 41000 ft | 497 kts | 118° |
| 2026-05-05 11:24 | 24.64332 | 39.52510 | 40998 ft | 495 kts | 118° |
| 2026-05-05 11:25 | 24.60918 | 39.59032 | 41000 ft | 495 kts | 119° |
| 2026-05-05 11:25 | 24.57483 | 39.65592 | 41000 ft | 495 kts | 118° |
| 2026-05-05 11:26 | 24.54920 | 39.72554 | 41001 ft | 492 kts | 102° |
| 2026-05-05 11:26 | 24.53883 | 39.79989 | 40997 ft | 493 kts | 95° |
| 2026-05-05 11:27 | 24.53178 | 39.87503 | 40998 ft | 495 kts | 94° |
| 2026-05-05 11:27 | 24.52502 | 39.95034 | 40998 ft | 496 kts | 95° |
| 2026-05-05 11:28 | 24.51801 | 40.02571 | 40999 ft | 496 kts | 95° |
| 2026-05-05 11:28 | 24.51076 | 40.10069 | 40999 ft | 496 kts | 95° |
| 2026-05-05 11:29 | 24.50333 | 40.17596 | 40999 ft | 496 kts | 95° |
| 2026-05-05 11:29 | 24.49586 | 40.25136 | 41002 ft | 496 kts | 95° |
| 2026-05-05 11:30 | 24.48837 | 40.32660 | 41001 ft | 496 kts | 95° |
| 2026-05-05 11:30 | 24.48089 | 40.40186 | 41001 ft | 496 kts | 95° |
| 2026-05-05 11:31 | 24.47343 | 40.47676 | 41002 ft | 496 kts | 95° |
| 2026-05-05 11:31 | 24.46588 | 40.55203 | 40999 ft | 496 kts | 95° |
| 2026-05-05 11:32 | 24.45828 | 40.62732 | 40999 ft | 496 kts | 95° |
| 2026-05-05 11:32 | 24.45062 | 40.70267 | 40999 ft | 496 kts | 95° |
| 2026-05-05 11:33 | 24.44292 | 40.77794 | 41001 ft | 496 kts | 95° |
| 2026-05-05 11:33 | 24.43525 | 40.85262 | 40999 ft | 496 kts | 95° |
| 2026-05-05 11:34 | 24.42747 | 40.92794 | 41002 ft | 496 kts | 95° |
| 2026-05-05 11:34 | 24.42098 | 40.99045 | 41002 ft | 496 kts | 95° |
| 2026-05-05 11:35 | 24.41315 | 41.06574 | 41000 ft | 496 kts | 95° |
| 2026-05-05 11:35 | 24.40528 | 41.14104 | 41002 ft | 497 kts | 95° |
| 2026-05-05 11:36 | 24.39734 | 41.21654 | 40998 ft | 497 kts | 95° |
| 2026-05-05 11:36 | 24.38939 | 41.29187 | 41000 ft | 497 kts | 95° |
| 2026-05-05 11:37 | 24.38140 | 41.36724 | 41003 ft | 497 kts | 95° |
| 2026-05-05 11:37 | 24.37343 | 41.44222 | 41002 ft | 497 kts | 95° |
| 2026-05-05 11:38 | 24.36537 | 41.51753 | 40999 ft | 497 kts | 95° |
| 2026-05-05 11:38 | 24.35726 | 41.59289 | 41002 ft | 497 kts | 95° |
| 2026-05-05 11:39 | 24.34911 | 41.66821 | 41000 ft | 497 kts | 95° |
| 2026-05-05 11:39 | 24.34094 | 41.74355 | 41000 ft | 497 kts | 95° |
| 2026-05-05 11:40 | 24.33182 | 41.81878 | 40995 ft | 497 kts | 101° |
| 2026-05-05 11:40 | 24.31458 | 41.89236 | 41000 ft | 497 kts | 104° |
| 2026-05-05 11:41 | 24.29558 | 41.96517 | 41002 ft | 497 kts | 105° |
| 2026-05-05 11:41 | 24.27631 | 42.03751 | 41003 ft | 497 kts | 105° |
| 2026-05-05 11:42 | 24.25699 | 42.11022 | 41000 ft | 497 kts | 105° |
| 2026-05-05 11:42 | 24.23776 | 42.18288 | 41000 ft | 497 kts | 105° |
| 2026-05-05 11:43 | 24.21849 | 42.25567 | 40998 ft | 497 kts | 105° |
| 2026-05-05 11:43 | 24.19918 | 42.32839 | 41000 ft | 497 kts | 105° |
| 2026-05-05 11:44 | 24.17984 | 42.40098 | 41001 ft | 497 kts | 105° |
| 2026-05-05 11:44 | 24.16047 | 42.47372 | 40999 ft | 497 kts | 105° |
| 2026-05-05 11:45 | 24.14118 | 42.54599 | 40999 ft | 497 kts | 105° |
| 2026-05-05 11:45 | 24.12171 | 42.61869 | 41000 ft | 497 kts | 105° |
| 2026-05-05 11:46 | 24.10222 | 42.69133 | 41000 ft | 497 kts | 105° |
| 2026-05-05 11:46 | 24.08272 | 42.76390 | 40999 ft | 497 kts | 105° |
| 2026-05-05 11:47 | 24.06317 | 42.83653 | 41001 ft | 497 kts | 105° |
| 2026-05-05 11:47 | 24.04369 | 42.90872 | 40999 ft | 497 kts | 105° |
| 2026-05-05 11:48 | 24.01424 | 43.01752 | 41001 ft | 497 kts | 105° |
| 2026-05-05 11:48 | 23.99451 | 43.09007 | 41002 ft | 497 kts | 105° |
| 2026-05-05 11:49 | 23.97476 | 43.16261 | 40998 ft | 497 kts | 105° |
| 2026-05-05 11:49 | 23.95505 | 43.23508 | 41000 ft | 497 kts | 105° |
| 2026-05-05 11:50 | 23.93527 | 43.30761 | 40999 ft | 497 kts | 105° |
| 2026-05-05 11:50 | 23.91545 | 43.38001 | 40999 ft | 497 kts | 105° |
| 2026-05-05 11:51 | 23.89553 | 43.45240 | 41001 ft | 497 kts | 105° |
| 2026-05-05 11:51 | 23.87579 | 43.52434 | 41002 ft | 497 kts | 105° |
| 2026-05-05 11:52 | 23.85592 | 43.59670 | 41001 ft | 497 kts | 105° |
| 2026-05-05 11:52 | 23.83596 | 43.66907 | 40999 ft | 497 kts | 105° |
| 2026-05-05 11:53 | 23.81600 | 43.74139 | 41002 ft | 497 kts | 105° |
| 2026-05-05 11:53 | 23.79597 | 43.81360 | 40999 ft | 497 kts | 105° |
| 2026-05-05 11:54 | 23.77757 | 43.88624 | 41006 ft | 496 kts | 99° |
| 2026-05-05 11:54 | 23.76948 | 43.96089 | 41001 ft | 496 kts | 94° |
| 2026-05-05 11:55 | 23.76385 | 44.03549 | 41000 ft | 497 kts | 93° |
| 2026-05-05 11:55 | 23.75855 | 44.11076 | 40999 ft | 497 kts | 93° |
| 2026-05-05 11:56 | 23.75303 | 44.18587 | 40998 ft | 497 kts | 93° |
| 2026-05-05 11:56 | 23.74740 | 44.26118 | 40998 ft | 497 kts | 93° |
| 2026-05-05 11:57 | 23.74171 | 44.33594 | 41001 ft | 497 kts | 94° |
| 2026-05-05 11:57 | 23.73594 | 44.41122 | 40999 ft | 497 kts | 94° |
| 2026-05-05 11:58 | 23.73015 | 44.48642 | 40998 ft | 497 kts | 94° |
| 2026-05-05 11:58 | 23.72434 | 44.56163 | 40999 ft | 497 kts | 94° |
| 2026-05-05 11:59 | 23.71847 | 44.63691 | 40998 ft | 498 kts | 94° |
| 2026-05-05 11:59 | 23.71257 | 44.71180 | 40998 ft | 498 kts | 94° |
| 2026-05-05 12:00 | 23.70662 | 44.78707 | 41001 ft | 497 kts | 94° |
| 2026-05-05 12:00 | 23.70062 | 44.86230 | 40998 ft | 497 kts | 94° |
| 2026-05-05 12:01 | 23.69459 | 44.93735 | 41001 ft | 497 kts | 94° |
| 2026-05-05 12:01 | 23.68855 | 45.01245 | 41000 ft | 496 kts | 94° |
| 2026-05-05 12:02 | 23.68248 | 45.08747 | 40999 ft | 496 kts | 94° |
| 2026-05-05 12:02 | 23.67640 | 45.16253 | 40999 ft | 497 kts | 94° |
| 2026-05-05 12:03 | 23.67032 | 45.23716 | 41001 ft | 497 kts | 94° |
| 2026-05-05 12:03 | 23.66418 | 45.31219 | 40998 ft | 496 kts | 94° |
| 2026-05-05 12:04 | 23.65791 | 45.38718 | 41002 ft | 496 kts | 94° |
| 2026-05-05 12:04 | 23.65163 | 45.46210 | 41000 ft | 496 kts | 94° |
| 2026-05-05 12:05 | 23.64533 | 45.53704 | 40998 ft | 496 kts | 94° |
| 2026-05-05 12:05 | 23.63905 | 45.61209 | 41002 ft | 496 kts | 94° |
| 2026-05-05 12:06 | 23.63272 | 45.68684 | 41002 ft | 495 kts | 94° |
| 2026-05-05 12:06 | 23.62634 | 45.76119 | 40999 ft | 495 kts | 94° |
| 2026-05-05 12:07 | 23.61989 | 45.83591 | 41002 ft | 495 kts | 94° |
| 2026-05-05 12:07 | 23.61339 | 45.91069 | 40998 ft | 495 kts | 94° |
| 2026-05-05 12:08 | 23.60692 | 45.98534 | 40999 ft | 495 kts | 94° |
| 2026-05-05 12:08 | 23.60039 | 46.06008 | 40999 ft | 495 kts | 94° |
| 2026-05-05 12:09 | 23.59382 | 46.13485 | 41002 ft | 495 kts | 94° |
| 2026-05-05 12:09 | 23.58725 | 46.20918 | 41003 ft | 496 kts | 94° |
| 2026-05-05 12:10 | 23.58059 | 46.28415 | 40999 ft | 497 kts | 94° |
| 2026-05-05 12:10 | 23.57389 | 46.35922 | 41000 ft | 496 kts | 94° |
| 2026-05-05 12:11 | 23.56718 | 46.43405 | 40999 ft | 496 kts | 94° |
| 2026-05-05 12:11 | 23.56046 | 46.50841 | 41000 ft | 496 kts | 94° |
| 2026-05-05 12:12 | 23.55366 | 46.58327 | 40999 ft | 497 kts | 94° |
| 2026-05-05 12:12 | 23.54680 | 46.65820 | 41000 ft | 497 kts | 94° |
| 2026-05-05 12:13 | 23.53996 | 46.73313 | 41000 ft | 496 kts | 95° |
| 2026-05-05 12:13 | 23.53308 | 46.80787 | 41001 ft | 495 kts | 94° |
| 2026-05-05 12:14 | 23.52623 | 46.88208 | 41003 ft | 495 kts | 95° |
| 2026-05-05 12:14 | 23.51923 | 46.95656 | 40998 ft | 494 kts | 95° |
| 2026-05-05 12:15 | 23.51214 | 47.03107 | 40999 ft | 494 kts | 95° |
| 2026-05-05 12:15 | 23.50513 | 47.10552 | 40999 ft | 494 kts | 95° |
| 2026-05-05 12:16 | 23.49812 | 47.17994 | 41002 ft | 494 kts | 95° |
| 2026-05-05 12:16 | 23.49101 | 47.25452 | 41001 ft | 494 kts | 95° |
| 2026-05-05 12:17 | 23.48389 | 47.32904 | 40999 ft | 494 kts | 95° |
| 2026-05-05 12:17 | 23.47678 | 47.40359 | 40999 ft | 494 kts | 95° |
| 2026-05-05 12:18 | 23.46963 | 47.47758 | 41001 ft | 494 kts | 95° |
| 2026-05-05 12:18 | 23.46242 | 47.55209 | 41000 ft | 494 kts | 95° |
| 2026-05-05 12:19 | 23.45510 | 47.62656 | 40999 ft | 494 kts | 95° |
| 2026-05-05 12:19 | 23.44778 | 47.70095 | 41001 ft | 494 kts | 95° |
| 2026-05-05 12:20 | 23.44045 | 47.77531 | 40998 ft | 493 kts | 95° |
| 2026-05-05 12:20 | 23.43315 | 47.84955 | 41000 ft | 493 kts | 95° |
| 2026-05-05 12:21 | 23.42579 | 47.92352 | 41002 ft | 493 kts | 95° |
| 2026-05-05 12:21 | 23.41833 | 47.99768 | 40999 ft | 493 kts | 95° |
| 2026-05-05 12:22 | 23.41086 | 48.07187 | 40999 ft | 493 kts | 95° |
| 2026-05-05 12:22 | 23.40337 | 48.14613 | 41001 ft | 493 kts | 95° |
| 2026-05-05 12:23 | 23.39712 | 48.20775 | 40998 ft | 493 kts | 95° |
| 2026-05-05 12:23 | 23.38957 | 48.28200 | 41000 ft | 493 kts | 95° |
| 2026-05-05 12:24 | 23.38203 | 48.35613 | 41000 ft | 492 kts | 94° |
| 2026-05-05 12:24 | 23.37816 | 48.43040 | 40998 ft | 492 kts | 90° |
| 2026-05-05 12:25 | 23.37623 | 48.50496 | 40998 ft | 492 kts | 90° |
| 2026-05-05 12:25 | 23.37384 | 48.57902 | 41001 ft | 492 kts | 91° |
| 2026-05-05 12:26 | 23.37087 | 48.65344 | 40999 ft | 492 kts | 91° |
| 2026-05-05 12:26 | 23.36777 | 48.72791 | 41002 ft | 492 kts | 91° |
| 2026-05-05 12:27 | 23.36462 | 48.80232 | 40999 ft | 492 kts | 91° |
| 2026-05-05 12:27 | 23.36143 | 48.87674 | 40998 ft | 492 kts | 91° |
| 2026-05-05 12:28 | 23.35821 | 48.95124 | 40999 ft | 492 kts | 91° |
| 2026-05-05 12:28 | 23.35497 | 49.02551 | 40999 ft | 491 kts | 91° |
| 2026-05-05 12:29 | 23.34816 | 49.09952 | 41001 ft | 492 kts | 97° |
| 2026-05-05 12:29 | 23.33804 | 49.17312 | 41000 ft | 491 kts | 98° |
| 2026-05-05 12:30 | 23.32746 | 49.24604 | 41003 ft | 491 kts | 98° |
| 2026-05-05 12:30 | 23.31674 | 49.31956 | 41001 ft | 491 kts | 97° |
| 2026-05-05 12:31 | 23.30610 | 49.39285 | 40999 ft | 491 kts | 97° |
| 2026-05-05 12:31 | 23.29545 | 49.46625 | 41000 ft | 491 kts | 98° |
| 2026-05-05 12:32 | 23.28475 | 49.53982 | 40999 ft | 491 kts | 97° |
| 2026-05-05 12:32 | 23.27403 | 49.61326 | 40998 ft | 491 kts | 98° |
| 2026-05-05 12:33 | 23.26328 | 49.68667 | 41002 ft | 491 kts | 98° |
| 2026-05-05 12:33 | 23.25256 | 49.75962 | 40999 ft | 491 kts | 98° |
| 2026-05-05 12:34 | 23.24173 | 49.83303 | 41001 ft | 491 kts | 98° |
| 2026-05-05 12:34 | 23.23087 | 49.90641 | 40999 ft | 491 kts | 98° |
| 2026-05-05 12:35 | 23.21998 | 49.97973 | 40999 ft | 491 kts | 98° |
| 2026-05-05 12:35 | 23.20905 | 50.05309 | 41001 ft | 491 kts | 98° |
| 2026-05-05 12:36 | 23.19809 | 50.12639 | 41000 ft | 491 kts | 98° |
| 2026-05-05 12:36 | 23.18711 | 50.19966 | 41003 ft | 491 kts | 98° |
| 2026-05-05 12:37 | 23.17614 | 50.27249 | 40999 ft | 491 kts | 98° |
| 2026-05-05 12:37 | 23.16505 | 50.34579 | 40999 ft | 491 kts | 98° |
| 2026-05-05 12:38 | 23.15394 | 50.41908 | 40999 ft | 491 kts | 98° |
| 2026-05-05 12:38 | 23.14287 | 50.49233 | 40999 ft | 491 kts | 98° |
| 2026-05-05 12:39 | 23.13186 | 50.56512 | 41000 ft | 491 kts | 98° |
| 2026-05-05 12:39 | 23.12064 | 50.63828 | 40999 ft | 491 kts | 98° |
| 2026-05-05 12:40 | 23.10937 | 50.71142 | 41002 ft | 491 kts | 98° |
| 2026-05-05 12:40 | 23.09811 | 50.78453 | 40999 ft | 491 kts | 98° |
| 2026-05-05 12:41 | 23.08679 | 50.85813 | 41001 ft | 491 kts | 98° |
| 2026-05-05 12:41 | 23.07555 | 50.93081 | 41003 ft | 491 kts | 98° |
| 2026-05-05 12:42 | 23.06417 | 51.00400 | 41000 ft | 491 kts | 98° |
| 2026-05-05 12:42 | 23.05274 | 51.07712 | 40998 ft | 491 kts | 98° |
| 2026-05-05 12:43 | 23.04131 | 51.15027 | 41003 ft | 491 kts | 98° |
| 2026-05-05 12:43 | 23.02988 | 51.22337 | 40999 ft | 491 kts | 98° |
| 2026-05-05 12:44 | 23.01847 | 51.29592 | 40998 ft | 491 kts | 98° |
| 2026-05-05 12:44 | 23.00697 | 51.36891 | 40999 ft | 491 kts | 98° |
| 2026-05-05 12:45 | 22.99539 | 51.44194 | 40999 ft | 490 kts | 98° |
| 2026-05-05 12:45 | 22.98383 | 51.51485 | 41000 ft | 490 kts | 98° |
| 2026-05-05 12:46 | 22.97224 | 51.58790 | 41000 ft | 490 kts | 98° |
| 2026-05-05 12:46 | 22.96057 | 51.66082 | 41000 ft | 490 kts | 98° |
| 2026-05-05 12:47 | 22.94909 | 51.73247 | 40999 ft | 490 kts | 98° |
| 2026-05-05 12:47 | 22.93726 | 51.80609 | 40999 ft | 490 kts | 99° |
| 2026-05-05 12:48 | 22.92549 | 51.87914 | 41002 ft | 490 kts | 98° |
| 2026-05-05 12:48 | 22.91378 | 51.95154 | 40998 ft | 490 kts | 98° |
| 2026-05-05 12:49 | 22.90196 | 52.02439 | 41001 ft | 490 kts | 98° |
| 2026-05-05 12:49 | 22.89011 | 52.09732 | 41000 ft | 490 kts | 98° |
| 2026-05-05 12:50 | 22.87824 | 52.17024 | 40998 ft | 490 kts | 99° |
| 2026-05-05 12:50 | 22.86635 | 52.24309 | 41000 ft | 490 kts | 99° |
| 2026-05-05 12:51 | 22.85442 | 52.31593 | 41000 ft | 491 kts | 99° |
| 2026-05-05 12:51 | 22.84249 | 52.38833 | 41000 ft | 491 kts | 99° |
| 2026-05-05 12:52 | 22.83047 | 52.46119 | 41000 ft | 491 kts | 99° |
| 2026-05-05 12:52 | 22.81914 | 52.53413 | 41003 ft | 490 kts | 97° |
| 2026-05-05 12:53 | 22.81059 | 52.60754 | 41002 ft | 490 kts | 95° |
| 2026-05-05 12:53 | 22.80244 | 52.68092 | 40999 ft | 491 kts | 96° |
| 2026-05-05 12:54 | 22.78948 | 52.79061 | 41001 ft | 491 kts | 96° |
| 2026-05-05 12:55 | 22.78045 | 52.86396 | 41001 ft | 491 kts | 96° |
| 2026-05-05 12:55 | 22.77145 | 52.93727 | 40999 ft | 491 kts | 96° |
| 2026-05-05 12:56 | 22.76244 | 53.01060 | 41001 ft | 491 kts | 96° |
| 2026-05-05 12:56 | 22.75333 | 53.08393 | 41000 ft | 491 kts | 96° |
| 2026-05-05 12:57 | 22.74429 | 53.15720 | 41002 ft | 491 kts | 96° |
| 2026-05-05 12:57 | 22.73517 | 53.23049 | 41000 ft | 491 kts | 96° |
| 2026-05-05 12:58 | 22.72608 | 53.30345 | 40999 ft | 491 kts | 96° |
| 2026-05-05 12:58 | 22.71691 | 53.37664 | 41000 ft | 491 kts | 96° |
| 2026-05-05 12:59 | 22.70769 | 53.45000 | 41002 ft | 491 kts | 96° |
| 2026-05-05 12:59 | 22.69848 | 53.52322 | 41000 ft | 491 kts | 96° |
| 2026-05-05 13:00 | 22.68454 | 53.63312 | 40999 ft | 491 kts | 97° |
| 2026-05-05 13:01 | 22.66581 | 53.77958 | 41000 ft | 491 kts | 96° |
| 2026-05-05 13:01 | 22.65641 | 53.85292 | 41000 ft | 491 kts | 97° |
| 2026-05-05 13:02 | 22.64703 | 53.92565 | 40998 ft | 491 kts | 97° |
| 2026-05-05 13:02 | 22.63754 | 53.99884 | 41002 ft | 491 kts | 97° |
| 2026-05-05 13:03 | 22.62805 | 54.07205 | 40999 ft | 491 kts | 97° |
| 2026-05-05 13:03 | 22.61851 | 54.14529 | 40998 ft | 491 kts | 97° |
| 2026-05-05 13:04 | 22.61036 | 54.21848 | 41004 ft | 490 kts | 90° |
| 2026-05-05 13:04 | 22.61778 | 54.29128 | 41000 ft | 488 kts | 72° |
| 2026-05-05 13:05 | 22.64300 | 54.35952 | 40999 ft | 489 kts | 64° |
| 2026-05-05 13:05 | 22.67249 | 54.42603 | 40999 ft | 490 kts | 63° |
| 2026-05-05 13:06 | 22.70228 | 54.49206 | 41000 ft | 491 kts | 63° |
| 2026-05-05 13:06 | 22.73194 | 54.55856 | 40841 ft | 491 kts | 63° |
| 2026-05-05 13:07 | 22.74670 | 54.59187 | 40590 ft | 491 kts | 63° |
| 2026-05-05 13:07 | 22.76144 | 54.62530 | 40351 ft | 490 kts | 63° |
| 2026-05-05 13:07 | 22.77609 | 54.65863 | 40100 ft | 490 kts | 63° |
| 2026-05-05 13:07 | 22.79075 | 54.69200 | 39855 ft | 490 kts | 63° |
| 2026-05-05 13:08 | 22.80540 | 54.72538 | 39599 ft | 490 kts | 63° |
| 2026-05-05 13:08 | 22.82003 | 54.75873 | 39357 ft | 490 kts | 63° |
| 2026-05-05 13:08 | 22.83472 | 54.79222 | 39108 ft | 490 kts | 63° |
| 2026-05-05 13:08 | 22.84939 | 54.82566 | 38861 ft | 490 kts | 63° |
| 2026-05-05 13:09 | 22.86403 | 54.85906 | 38608 ft | 490 kts | 63° |
| 2026-05-05 13:09 | 22.87868 | 54.89251 | 38362 ft | 490 kts | 63° |
| 2026-05-05 13:09 | 22.89330 | 54.92590 | 38115 ft | 490 kts | 63° |
| 2026-05-05 13:09 | 22.90792 | 54.95931 | 37862 ft | 490 kts | 63° |
| 2026-05-05 13:10 | 22.92255 | 54.99278 | 37620 ft | 490 kts | 63° |
| 2026-05-05 13:10 | 22.93222 | 55.01491 | 37444 ft | 490 kts | 63° |
| 2026-05-05 13:10 | 22.95157 | 55.05921 | 37127 ft | 490 kts | 63° |
| 2026-05-05 13:10 | 22.96620 | 55.09276 | 36872 ft | 490 kts | 64° |
| 2026-05-05 13:11 | 22.97586 | 55.11492 | 36710 ft | 490 kts | 64° |
| 2026-05-05 13:11 | 22.99051 | 55.14832 | 36463 ft | 490 kts | 62° |
| 2026-05-05 13:11 | 23.00770 | 55.18024 | 36219 ft | 489 kts | 54° |
| 2026-05-05 13:11 | 23.02933 | 55.20922 | 35969 ft | 488 kts | 44° |
| 2026-05-05 13:12 | 23.05480 | 55.23347 | 35729 ft | 488 kts | 34° |
| 2026-05-05 13:12 | 23.08351 | 55.25229 | 35472 ft | 488 kts | 24° |
| 2026-05-05 13:12 | 23.11518 | 55.26562 | 35223 ft | 489 kts | 16° |
| 2026-05-05 13:12 | 23.14774 | 55.27625 | 34969 ft | 490 kts | 14° |
| 2026-05-05 13:13 | 23.18073 | 55.28600 | 34715 ft | 491 kts | 13° |
| 2026-05-05 13:13 | 23.21389 | 55.29540 | 34472 ft | 492 kts | 13° |
| 2026-05-05 13:13 | 23.24714 | 55.30478 | 34228 ft | 493 kts | 13° |
| 2026-05-05 13:13 | 23.28036 | 55.31425 | 33971 ft | 493 kts | 14° |
| 2026-05-05 13:14 | 23.31361 | 55.32386 | 33720 ft | 494 kts | 14° |
| 2026-05-05 13:14 | 23.34681 | 55.33357 | 33471 ft | 494 kts | 14° |
| 2026-05-05 13:14 | 23.38009 | 55.34337 | 33223 ft | 495 kts | 14° |
| 2026-05-05 13:14 | 23.41335 | 55.35321 | 32965 ft | 496 kts | 14° |
| 2026-05-05 13:15 | 23.44625 | 55.36296 | 32712 ft | 496 kts | 14° |
| 2026-05-05 13:15 | 23.47958 | 55.37284 | 32487 ft | 497 kts | 14° |
| 2026-05-05 13:15 | 23.51294 | 55.38273 | 32230 ft | 497 kts | 14° |
| 2026-05-05 13:15 | 23.54630 | 55.39265 | 31514 ft | 495 kts | 14° |
| 2026-05-05 13:16 | 23.57954 | 55.40251 | 30551 ft | 496 kts | 14° |
| 2026-05-05 13:16 | 23.61294 | 55.41242 | 29545 ft | 498 kts | 14° |
| 2026-05-05 13:16 | 23.64639 | 55.42236 | 28661 ft | 497 kts | 14° |
| 2026-05-05 13:16 | 23.67964 | 55.43225 | 27968 ft | 492 kts | 14° |
| 2026-05-05 13:17 | 23.71248 | 55.44203 | 27352 ft | 485 kts | 14° |
| 2026-05-05 13:17 | 23.74486 | 55.45165 | 26722 ft | 481 kts | 14° |
| 2026-05-05 13:17 | 23.77710 | 55.46122 | 25921 ft | 479 kts | 14° |
| 2026-05-05 13:17 | 23.80917 | 55.47076 | 25199 ft | 475 kts | 14° |
| 2026-05-05 13:18 | 23.84084 | 55.48019 | 24532 ft | 469 kts | 14° |
| 2026-05-05 13:18 | 23.87207 | 55.48951 | 24119 ft | 460 kts | 14° |
| 2026-05-05 13:18 | 23.90288 | 55.49865 | 24003 ft | 459 kts | 14° |
| 2026-05-05 13:18 | 23.93338 | 55.50769 | 23904 ft | 455 kts | 14° |
| 2026-05-05 13:19 | 23.96379 | 55.51668 | 23158 ft | 450 kts | 14° |
| 2026-05-05 13:19 | 23.99416 | 55.52569 | 22140 ft | 454 kts | 14° |
| 2026-05-05 13:19 | 24.02469 | 55.53480 | 21271 ft | 453 kts | 14° |
| 2026-05-05 13:19 | 24.05496 | 55.54390 | 20541 ft | 448 kts | 14° |
| 2026-05-05 13:20 | 24.08474 | 55.55285 | 20106 ft | 437 kts | 14° |
| 2026-05-05 13:20 | 24.11377 | 55.56154 | 20004 ft | 432 kts | 14° |
| 2026-05-05 13:20 | 24.14285 | 55.57021 | 19998 ft | 433 kts | 14° |
| 2026-05-05 13:20 | 24.17191 | 55.57887 | 19979 ft | 430 kts | 14° |
| 2026-05-05 13:21 | 24.20055 | 55.58705 | 19393 ft | 423 kts | 11° |
| 2026-05-05 13:21 | 24.22984 | 55.59036 | 18358 ft | 427 kts | 358° |
| 2026-05-05 13:21 | 24.25899 | 55.58477 | 17496 ft | 426 kts | 340° |
| 2026-05-05 13:21 | 24.28451 | 55.56947 | 17157 ft | 411 kts | 321° |
| 2026-05-05 13:22 | 24.30354 | 55.54749 | 16863 ft | 397 kts | 303° |
| 2026-05-05 13:22 | 24.31539 | 55.52052 | 16585 ft | 383 kts | 285° |
| 2026-05-05 13:22 | 24.31917 | 55.49260 | 16342 ft | 370 kts | 269° |
| 2026-05-05 13:22 | 24.31564 | 55.46524 | 16113 ft | 357 kts | 252° |
| 2026-05-05 13:23 | 24.30829 | 55.43966 | 15847 ft | 345 kts | 254° |
| 2026-05-05 13:23 | 24.30361 | 55.41434 | 15542 ft | 331 kts | 262° |
| 2026-05-05 13:23 | 24.30308 | 55.38970 | 14864 ft | 319 kts | 274° |
| 2026-05-05 13:23 | 24.30635 | 55.36586 | 14035 ft | 314 kts | 282° |
| 2026-05-05 13:24 | 24.31226 | 55.34301 | 13214 ft | 309 kts | 286° |
| 2026-05-05 13:24 | 24.31892 | 55.32092 | 12635 ft | 298 kts | 287° |
| 2026-05-05 13:24 | 24.32552 | 55.29947 | 12350 ft | 299 kts | 287° |
| 2026-05-05 13:24 | 24.33209 | 55.27800 | 12124 ft | 300 kts | 287° |
| 2026-05-05 13:25 | 24.33869 | 55.25640 | 11793 ft | 296 kts | 287° |
| 2026-05-05 13:25 | 24.34523 | 55.23505 | 11505 ft | 295 kts | 287° |
| 2026-05-05 13:25 | 24.35176 | 55.21376 | 11227 ft | 294 kts | 287° |
| 2026-05-05 13:25 | 24.35825 | 55.19258 | 10931 ft | 292 kts | 287° |
| 2026-05-05 13:26 | 24.36472 | 55.17153 | 10648 ft | 291 kts | 287° |
| 2026-05-05 13:26 | 24.37113 | 55.15059 | 10459 ft | 284 kts | 287° |
| 2026-05-05 13:26 | 24.37730 | 55.13036 | 10245 ft | 275 kts | 287° |
| 2026-05-05 13:26 | 24.38330 | 55.11073 | 9992 ft | 268 kts | 287° |
| 2026-05-05 13:27 | 24.38919 | 55.09142 | 9742 ft | 264 kts | 287° |
| 2026-05-05 13:27 | 24.39504 | 55.07229 | 9422 ft | 263 kts | 287° |
| 2026-05-05 13:27 | 24.40079 | 55.05360 | 9129 ft | 261 kts | 287° |
| 2026-05-05 13:27 | 24.40656 | 55.03472 | 8866 ft | 260 kts | 287° |
| 2026-05-05 13:28 | 24.41051 | 55.01548 | 8620 ft | 259 kts | 272° |
| 2026-05-05 13:28 | 24.40729 | 54.99631 | 8370 ft | 257 kts | 244° |
| 2026-05-05 13:28 | 24.39640 | 54.98089 | 8129 ft | 256 kts | 222° |
| 2026-05-05 13:28 | 24.38259 | 54.96850 | 7874 ft | 257 kts | 213° |
| 2026-05-05 13:29 | 24.36624 | 54.96084 | 7633 ft | 256 kts | 189° |
| 2026-05-05 13:29 | 24.34867 | 54.96200 | 7389 ft | 256 kts | 162° |
| 2026-05-05 13:29 | 24.33360 | 54.97207 | 7133 ft | 255 kts | 134° |
| 2026-05-05 13:29 | 24.32216 | 54.98692 | 6899 ft | 256 kts | 126° |
| 2026-05-05 13:30 | 24.31148 | 55.00251 | 6665 ft | 256 kts | 126° |
| 2026-05-05 13:30 | 24.30078 | 55.01806 | 6412 ft | 255 kts | 126° |
| 2026-05-05 13:30 | 24.29004 | 55.03352 | 6185 ft | 253 kts | 127° |
| 2026-05-05 13:30 | 24.27946 | 55.04847 | 6020 ft | 243 kts | 127° |
| 2026-05-05 13:31 | 24.26908 | 55.06246 | 5779 ft | 237 kts | 133° |
| 2026-05-05 13:31 | 24.25570 | 55.07225 | 5555 ft | 230 kts | 161° |
| 2026-05-05 13:31 | 24.23999 | 55.07328 | 5345 ft | 228 kts | 193° |
| 2026-05-05 13:31 | 24.22584 | 55.06583 | 5098 ft | 227 kts | 214° |
| 2026-05-05 13:32 | 24.21333 | 55.05539 | 4873 ft | 225 kts | 217° |
| 2026-05-05 13:32 | 24.20204 | 55.04367 | 4659 ft | 224 kts | 232° |
| 2026-05-05 13:32 | 24.19617 | 55.02808 | 4470 ft | 224 kts | 263° |
| 2026-05-05 13:32 | 24.19891 | 55.01155 | 4283 ft | 223 kts | 295° |
| 2026-05-05 13:33 | 24.20760 | 54.99752 | 4242 ft | 223 kts | 306° |
| 2026-05-05 13:33 | 24.21729 | 54.98426 | 4240 ft | 223 kts | 307° |
| 2026-05-05 13:33 | 24.22546 | 54.96949 | 4259 ft | 233 kts | 290° |
| 2026-05-05 13:33 | 24.22781 | 54.95246 | 4271 ft | 223 kts | 263° |
| 2026-05-05 13:34 | 24.22268 | 54.93693 | 4291 ft | 220 kts | 237° |
| 2026-05-05 13:34 | 24.21514 | 54.92229 | 4270 ft | 222 kts | 249° |
| 2026-05-05 13:34 | 24.21140 | 54.90583 | 4282 ft | 223 kts | 261° |
| 2026-05-05 13:34 | 24.21214 | 54.88899 | 4272 ft | 223 kts | 285° |
| 2026-05-05 13:35 | 24.22090 | 54.87522 | 4282 ft | 224 kts | 324° |
| 2026-05-05 13:35 | 24.23517 | 54.86863 | 4289 ft | 224 kts | 342° |
| 2026-05-05 13:35 | 24.25027 | 54.86435 | 4284 ft | 224 kts | 344° |
| 2026-05-05 13:35 | 24.26514 | 54.86023 | 4268 ft | 224 kts | 343° |
| 2026-05-05 13:36 | 24.28013 | 54.85567 | 4268 ft | 223 kts | 339° |
| 2026-05-05 13:36 | 24.29343 | 54.84711 | 4191 ft | 222 kts | 317° |
| 2026-05-05 13:36 | 24.30351 | 54.83451 | 3940 ft | 219 kts | 304° |
| 2026-05-05 13:36 | 24.31232 | 54.82128 | 3622 ft | 209 kts | 305° |
| 2026-05-05 13:37 | 24.32094 | 54.80918 | 3324 ft | 194 kts | 307° |
| 2026-05-05 13:37 | 24.32901 | 54.79793 | 3037 ft | 181 kts | 306° |
| 2026-05-05 13:37 | 24.33648 | 54.78737 | 2790 ft | 169 kts | 306° |
| 2026-05-05 13:37 | 24.34343 | 54.77754 | 2568 ft | 157 kts | 306° |
| 2026-05-05 13:38 | 24.34991 | 54.76842 | 2367 ft | 146 kts | 306° |
| 2026-05-05 13:38 | 24.35605 | 54.75974 | 2190 ft | 143 kts | 306° |
| 2026-05-05 13:38 | 24.36216 | 54.75113 | 1996 ft | 143 kts | 306° |
| 2026-05-05 13:38 | 24.36819 | 54.74262 | 1805 ft | 143 kts | 307° |
| 2026-05-05 13:39 | 24.37428 | 54.73405 | 1628 ft | 142 kts | 306° |
| 2026-05-05 13:39 | 24.38036 | 54.72547 | 1431 ft | 142 kts | 307° |
| 2026-05-05 13:39 | 24.38626 | 54.71715 | 1258 ft | 142 kts | 307° |
| 2026-05-05 13:39 | 24.39242 | 54.70848 | 1056 ft | 141 kts | 307° |
| 2026-05-05 13:40 | 24.39843 | 54.70000 | 867 ft | 140 kts | 307° |
| 2026-05-05 13:40 | 24.40422 | 54.69174 | 646 ft | 133 kts | 306° |
| 2026-05-05 13:40 | 24.40991 | 54.68392 | 484 ft | 130 kts | 307° |
| 2026-05-05 13:40 | 24.41542 | 54.67603 | 333 ft | 134 kts | 306° |
| 2026-05-05 13:41 | 24.42112 | 54.66793 | 164 ft | 133 kts | 307° |
| 2026-05-05 13:41 | 24.42659 | 54.66023 | 90 ft | 122 kts | 308° |
| 2026-05-05 13:41 | 24.43022 | 54.65517 | 89 ft | 96 kts | 308° |
| 2026-05-05 13:41 | 24.43298 | 54.65133 | 90 ft | 74 kts | 308° |
| 2026-05-05 13:42 | 24.43477 | 54.64926 | 88 ft | 22 kts | 339° |
| 2026-05-05 13:42 | 24.43618 | 54.64866 | 88 ft | 21 kts | 338° |
| 2026-05-05 13:42 | 24.43734 | 54.64804 | 86 ft | 11 kts | 326° |
| 2026-05-05 13:42 | 24.43790 | 54.64741 | 87 ft | 9 kts | 308° |
| 2026-05-05 13:43 | 24.43832 | 54.64686 | 87 ft | 9 kts | 307° |
| 2026-05-05 13:43 | 24.43885 | 54.64678 | 85 ft | 9 kts | 26° |
| 2026-05-05 13:43 | 24.43937 | 54.64725 | 88 ft | 11 kts | 42° |
| 2026-05-05 13:43 | 24.43994 | 54.64777 | 86 ft | 11 kts | 38° |
| 2026-05-05 13:44 | 24.44063 | 54.64835 | 88 ft | 14 kts | 38° |
| 2026-05-05 13:44 | 24.44147 | 54.64906 | 86 ft | 17 kts | 37° |
| 2026-05-05 13:44 | 24.44242 | 54.64986 | 88 ft | 15 kts | 38° |
| 2026-05-05 13:44 | 24.44300 | 54.65035 | 86 ft | 0 kts | 37° |
| 2026-05-05 13:46 | 24.44301 | 54.65036 | 86 ft | 3 kts | 37° |
| 2026-05-05 13:46 | 24.44335 | 54.65063 | 87 ft | 8 kts | 37° |
| 2026-05-05 13:46 | 24.44353 | 54.65079 | 88 ft | 0 kts | 37° |
| 2026-05-05 13:48 | 24.44382 | 54.65099 | 88 ft | 7 kts | 35° |
| 2026-05-05 13:48 | 24.44430 | 54.65138 | 86 ft | 10 kts | 27° |
| 2026-05-05 13:49 | 24.44496 | 54.65123 | 88 ft | 11 kts | 320° |
| 2026-05-05 13:49 | 24.44554 | 54.65053 | 86 ft | 13 kts | 306° |
| 2026-05-05 13:49 | 24.44616 | 54.64961 | 87 ft | 16 kts | 307° |
| 2026-05-05 13:49 | 24.44697 | 54.64882 | 84 ft | 15 kts | 352° |
| 2026-05-05 13:50 | 24.44793 | 54.64835 | 85 ft | 15 kts | 320° |
| 2026-05-05 13:50 | 24.44846 | 54.64767 | 87 ft | 8 kts | 306° |
| 2026-05-05 13:50 | 24.44878 | 54.64717 | 86 ft | 5 kts | 302° |
| 2026-05-05 13:50 | 24.44893 | 54.64696 | 87 ft | 3 kts | 314° |
| 2026-05-05 13:51 | 24.44918 | 54.64688 | 87 ft | 5 kts | 355° |
| 2026-05-05 13:51 | 24.44930 | 54.64696 | 86 ft | 3 kts | 36° |
| 2026-05-05 13:51 | 24.44954 | 54.64713 | 86 ft | 5 kts | 30° |
| 2026-05-05 13:51 | 24.44968 | 54.64721 | 86 ft | 2 kts | 28° |
| 2026-05-05 13:52 | 24.44973 | 54.64724 | 85 ft | 0 kts | 27° |
| 2026-05-05 13:52 | 24.44978 | 54.64726 | 85 ft | 2 kts | 27° |
| 2026-05-05 13:52 | 24.44989 | 54.64733 | 86 ft | 1 kts | 26° |
| 2026-05-05 13:52 | 24.44990 | 54.64733 | 86 ft | 0 kts | 26° |